<?xml version="1.0" encoding="UTF-8" standalone="no" ?>
<gpx xmlns="http://www.topografix.com/GPX/1/1" xmlns:xsi="http://www.w3.org/2001/XMLSchema-instance" xsi:schemaLocation="http://www.topografix.com/GPX/1/1 http://www.topografix.com/GPX/1/1/gpx.xsd" version="1.1" creator="VisuGPX - https://www.visugpx.com">
  <metadata>
    <name>Saignon</name>
    <desc><![CDATA[Boucle au départ de Saignon (13km, dénivelé 3-400m)]]></desc>
  </metadata>
  <trk>
    <name><![CDATA[2014-10-24 15:07:04]]></name>
    <trkseg>
      <trkpt lat="43.86189" lon="5.43056">
        <ele>489.41</ele>
        <time>2014-10-20T08:11:51Z</time>
      </trkpt>
      <trkpt lat="43.86135" lon="5.42987">
        <ele>477.66</ele>
        <time>2014-10-24T07:10:54Z</time>
      </trkpt>
      <trkpt lat="43.86132" lon="5.42985">
        <ele>477.66</ele>
        <time>2014-10-24T07:10:55Z</time>
      </trkpt>
      <trkpt lat="43.86139" lon="5.42988">
        <ele>477.35</ele>
        <time>2014-10-24T07:11:24Z</time>
      </trkpt>
      <trkpt lat="43.86148" lon="5.42992">
        <ele>477.78</ele>
        <time>2014-10-24T07:11:54Z</time>
      </trkpt>
      <trkpt lat="43.86149" lon="5.42991">
        <ele>478.24</ele>
        <time>2014-10-24T07:12:26Z</time>
      </trkpt>
      <trkpt lat="43.86151" lon="5.42998">
        <ele>478.51</ele>
        <time>2014-10-24T07:12:49Z</time>
      </trkpt>
      <trkpt lat="43.86154" lon="5.42999">
        <ele>478.49</ele>
        <time>2014-10-24T07:13:10Z</time>
      </trkpt>
      <trkpt lat="43.86156" lon="5.42997">
        <ele>478.36</ele>
        <time>2014-10-24T07:13:32Z</time>
      </trkpt>
      <trkpt lat="43.86165" lon="5.42989">
        <ele>478.23</ele>
        <time>2014-10-24T07:13:49Z</time>
      </trkpt>
      <trkpt lat="43.86176" lon="5.42982">
        <ele>477.5</ele>
        <time>2014-10-24T07:14:00Z</time>
      </trkpt>
      <trkpt lat="43.86188" lon="5.42983">
        <ele>476.59</ele>
        <time>2014-10-24T07:14:17Z</time>
      </trkpt>
      <trkpt lat="43.86199" lon="5.4298">
        <ele>475.86</ele>
        <time>2014-10-24T07:14:28Z</time>
      </trkpt>
      <trkpt lat="43.86259" lon="5.4294">
        <ele>474.96</ele>
        <time>2014-10-24T07:15:40Z</time>
      </trkpt>
      <trkpt lat="43.86263" lon="5.4292">
        <ele>474.19</ele>
        <time>2014-10-24T07:15:58Z</time>
      </trkpt>
      <trkpt lat="43.86265" lon="5.42914">
        <ele>473.98</ele>
        <time>2014-10-24T07:16:02Z</time>
      </trkpt>
      <trkpt lat="43.86273" lon="5.42904">
        <ele>473.45</ele>
        <time>2014-10-24T07:16:11Z</time>
      </trkpt>
      <trkpt lat="43.86292" lon="5.42895">
        <ele>473.42</ele>
        <time>2014-10-24T07:16:22Z</time>
      </trkpt>
      <trkpt lat="43.86309" lon="5.42902">
        <ele>475.43</ele>
        <time>2014-10-24T07:16:53Z</time>
      </trkpt>
      <trkpt lat="43.86319" lon="5.42913">
        <ele>476.88</ele>
        <time>2014-10-24T07:17:03Z</time>
      </trkpt>
      <trkpt lat="43.86323" lon="5.42916">
        <ele>477.23</ele>
        <time>2014-10-24T07:17:07Z</time>
      </trkpt>
      <trkpt lat="43.86334" lon="5.42906">
        <ele>479.12</ele>
        <time>2014-10-24T07:17:23Z</time>
      </trkpt>
      <trkpt lat="43.86341" lon="5.429">
        <ele>480.52</ele>
        <time>2014-10-24T07:17:32Z</time>
      </trkpt>
      <trkpt lat="43.8635" lon="5.42892">
        <ele>481.18</ele>
        <time>2014-10-24T07:17:41Z</time>
      </trkpt>
      <trkpt lat="43.86353" lon="5.42891">
        <ele>481.32</ele>
        <time>2014-10-24T07:17:44Z</time>
      </trkpt>
      <trkpt lat="43.86359" lon="5.42878">
        <ele>482.2</ele>
        <time>2014-10-24T07:17:56Z</time>
      </trkpt>
      <trkpt lat="43.86363" lon="5.42876">
        <ele>482.84</ele>
        <time>2014-10-24T07:18:01Z</time>
      </trkpt>
      <trkpt lat="43.86366" lon="5.42874">
        <ele>483.09</ele>
        <time>2014-10-24T07:18:04Z</time>
      </trkpt>
      <trkpt lat="43.86368" lon="5.42864">
        <ele>483.69</ele>
        <time>2014-10-24T07:18:09Z</time>
      </trkpt>
      <trkpt lat="43.86374" lon="5.42852">
        <ele>484.58</ele>
        <time>2014-10-24T07:18:18Z</time>
      </trkpt>
      <trkpt lat="43.86377" lon="5.42848">
        <ele>485</ele>
        <time>2014-10-24T07:18:23Z</time>
      </trkpt>
      <trkpt lat="43.86392" lon="5.42849">
        <ele>486.46</ele>
        <time>2014-10-24T07:18:42Z</time>
      </trkpt>
      <trkpt lat="43.86391" lon="5.42858">
        <ele>486.83</ele>
        <time>2014-10-24T07:19:04Z</time>
      </trkpt>
      <trkpt lat="43.864" lon="5.42869">
        <ele>485.58</ele>
        <time>2014-10-24T07:19:22Z</time>
      </trkpt>
      <trkpt lat="43.86413" lon="5.42854">
        <ele>483.66</ele>
        <time>2014-10-24T07:19:41Z</time>
      </trkpt>
      <trkpt lat="43.86423" lon="5.42838">
        <ele>482.77</ele>
        <time>2014-10-24T07:19:53Z</time>
      </trkpt>
      <trkpt lat="43.86427" lon="5.42829">
        <ele>482.64</ele>
        <time>2014-10-24T07:20:01Z</time>
      </trkpt>
      <trkpt lat="43.8643" lon="5.42819">
        <ele>482.64</ele>
        <time>2014-10-24T07:20:09Z</time>
      </trkpt>
      <trkpt lat="43.86438" lon="5.42794">
        <ele>482.76</ele>
        <time>2014-10-24T07:20:27Z</time>
      </trkpt>
      <trkpt lat="43.8644" lon="5.42778">
        <ele>483.86</ele>
        <time>2014-10-24T07:20:45Z</time>
      </trkpt>
      <trkpt lat="43.86453" lon="5.42763">
        <ele>485.16</ele>
        <time>2014-10-24T07:20:58Z</time>
      </trkpt>
      <trkpt lat="43.86457" lon="5.42755">
        <ele>488.27</ele>
        <time>2014-10-24T07:21:16Z</time>
      </trkpt>
      <trkpt lat="43.86457" lon="5.42751">
        <ele>489.01</ele>
        <time>2014-10-24T07:21:22Z</time>
      </trkpt>
      <trkpt lat="43.8646" lon="5.42743">
        <ele>489.08</ele>
        <time>2014-10-24T07:22:00Z</time>
      </trkpt>
      <trkpt lat="43.86463" lon="5.42755">
        <ele>488.31</ele>
        <time>2014-10-24T07:24:36Z</time>
      </trkpt>
      <trkpt lat="43.86469" lon="5.42759">
        <ele>488.19</ele>
        <time>2014-10-24T07:25:42Z</time>
      </trkpt>
      <trkpt lat="43.86467" lon="5.42758">
        <ele>488.01</ele>
        <time>2014-10-24T07:26:13Z</time>
      </trkpt>
      <trkpt lat="43.86467" lon="5.42757">
        <ele>487.72</ele>
        <time>2014-10-24T07:26:43Z</time>
      </trkpt>
      <trkpt lat="43.86465" lon="5.42751">
        <ele>487.31</ele>
        <time>2014-10-24T07:28:21Z</time>
      </trkpt>
      <trkpt lat="43.86462" lon="5.42751">
        <ele>487.23</ele>
        <time>2014-10-24T07:28:56Z</time>
      </trkpt>
      <trkpt lat="43.86458" lon="5.42751">
        <ele>487.07</ele>
        <time>2014-10-24T07:30:22Z</time>
      </trkpt>
      <trkpt lat="43.86465" lon="5.42752">
        <ele>486.93</ele>
        <time>2014-10-24T07:30:56Z</time>
      </trkpt>
      <trkpt lat="43.8646" lon="5.42753">
        <ele>487.13</ele>
        <time>2014-10-24T07:32:08Z</time>
      </trkpt>
      <trkpt lat="43.86462" lon="5.42753">
        <ele>486.84</ele>
        <time>2014-10-24T07:32:35Z</time>
      </trkpt>
      <trkpt lat="43.86462" lon="5.42753">
        <ele>486.95</ele>
        <time>2014-10-24T07:32:38Z</time>
      </trkpt>
      <trkpt lat="43.86462" lon="5.42756">
        <ele>487.74</ele>
        <time>2014-10-24T07:33:12Z</time>
      </trkpt>
      <trkpt lat="43.86456" lon="5.42755">
        <ele>484.72</ele>
        <time>2014-10-24T07:33:30Z</time>
      </trkpt>
      <trkpt lat="43.86455" lon="5.42755">
        <ele>484.6</ele>
        <time>2014-10-24T07:33:31Z</time>
      </trkpt>
      <trkpt lat="43.86446" lon="5.42774">
        <ele>482.2</ele>
        <time>2014-10-24T07:33:51Z</time>
      </trkpt>
      <trkpt lat="43.86447" lon="5.42781">
        <ele>481.61</ele>
        <time>2014-10-24T07:34:05Z</time>
      </trkpt>
      <trkpt lat="43.86447" lon="5.42787">
        <ele>481.48</ele>
        <time>2014-10-24T07:34:25Z</time>
      </trkpt>
      <trkpt lat="43.86444" lon="5.42794">
        <ele>481.19</ele>
        <time>2014-10-24T07:34:50Z</time>
      </trkpt>
      <trkpt lat="43.8644" lon="5.42805">
        <ele>480.34</ele>
        <time>2014-10-24T07:35:12Z</time>
      </trkpt>
      <trkpt lat="43.86434" lon="5.42815">
        <ele>480.47</ele>
        <time>2014-10-24T07:35:28Z</time>
      </trkpt>
      <trkpt lat="43.86426" lon="5.42833">
        <ele>480.9</ele>
        <time>2014-10-24T07:35:45Z</time>
      </trkpt>
      <trkpt lat="43.86419" lon="5.4285">
        <ele>480.95</ele>
        <time>2014-10-24T07:35:59Z</time>
      </trkpt>
      <trkpt lat="43.86404" lon="5.4287">
        <ele>482</ele>
        <time>2014-10-24T07:36:21Z</time>
      </trkpt>
      <trkpt lat="43.86393" lon="5.42871">
        <ele>483.46</ele>
        <time>2014-10-24T07:36:37Z</time>
      </trkpt>
      <trkpt lat="43.86388" lon="5.42875">
        <ele>484.72</ele>
        <time>2014-10-24T07:36:49Z</time>
      </trkpt>
      <trkpt lat="43.86386" lon="5.42883">
        <ele>485.25</ele>
        <time>2014-10-24T07:36:55Z</time>
      </trkpt>
      <trkpt lat="43.8637" lon="5.42907">
        <ele>485.23</ele>
        <time>2014-10-24T07:37:17Z</time>
      </trkpt>
      <trkpt lat="43.86368" lon="5.42909">
        <ele>485.33</ele>
        <time>2014-10-24T07:37:20Z</time>
      </trkpt>
      <trkpt lat="43.8636" lon="5.42909">
        <ele>486.1</ele>
        <time>2014-10-24T07:37:36Z</time>
      </trkpt>
      <trkpt lat="43.86366" lon="5.42901">
        <ele>486.35</ele>
        <time>2014-10-24T07:37:52Z</time>
      </trkpt>
      <trkpt lat="43.86371" lon="5.429">
        <ele>487.11</ele>
        <time>2014-10-24T07:38:08Z</time>
      </trkpt>
      <trkpt lat="43.8637" lon="5.429">
        <ele>487.44</ele>
        <time>2014-10-24T07:38:31Z</time>
      </trkpt>
      <trkpt lat="43.86363" lon="5.42903">
        <ele>487.28</ele>
        <time>2014-10-24T07:38:53Z</time>
      </trkpt>
      <trkpt lat="43.86359" lon="5.42909">
        <ele>486.98</ele>
        <time>2014-10-24T07:39:09Z</time>
      </trkpt>
      <trkpt lat="43.86359" lon="5.4291">
        <ele>486.95</ele>
        <time>2014-10-24T07:39:41Z</time>
      </trkpt>
      <trkpt lat="43.86365" lon="5.42911">
        <ele>486.53</ele>
        <time>2014-10-24T07:40:01Z</time>
      </trkpt>
      <trkpt lat="43.86372" lon="5.42905">
        <ele>485.55</ele>
        <time>2014-10-24T07:40:18Z</time>
      </trkpt>
      <trkpt lat="43.86384" lon="5.42887">
        <ele>485.18</ele>
        <time>2014-10-24T07:40:40Z</time>
      </trkpt>
      <trkpt lat="43.8639" lon="5.42872">
        <ele>486.19</ele>
        <time>2014-10-24T07:40:59Z</time>
      </trkpt>
      <trkpt lat="43.86393" lon="5.42873">
        <ele>485.13</ele>
        <time>2014-10-24T07:41:15Z</time>
      </trkpt>
      <trkpt lat="43.86395" lon="5.42879">
        <ele>483.85</ele>
        <time>2014-10-24T07:41:33Z</time>
      </trkpt>
      <trkpt lat="43.86389" lon="5.42896">
        <ele>483.89</ele>
        <time>2014-10-24T07:41:51Z</time>
      </trkpt>
      <trkpt lat="43.86389" lon="5.42895">
        <ele>484.02</ele>
        <time>2014-10-24T07:42:07Z</time>
      </trkpt>
      <trkpt lat="43.86392" lon="5.42889">
        <ele>483.84</ele>
        <time>2014-10-24T07:42:14Z</time>
      </trkpt>
      <trkpt lat="43.86394" lon="5.42885">
        <ele>483.85</ele>
        <time>2014-10-24T07:42:18Z</time>
      </trkpt>
      <trkpt lat="43.86395" lon="5.42875">
        <ele>483.87</ele>
        <time>2014-10-24T07:42:26Z</time>
      </trkpt>
      <trkpt lat="43.86391" lon="5.42855">
        <ele>485.04</ele>
        <time>2014-10-24T07:42:44Z</time>
      </trkpt>
      <trkpt lat="43.86385" lon="5.42848">
        <ele>484.8</ele>
        <time>2014-10-24T07:42:59Z</time>
      </trkpt>
      <trkpt lat="43.86378" lon="5.42847">
        <ele>484.2</ele>
        <time>2014-10-24T07:43:06Z</time>
      </trkpt>
      <trkpt lat="43.86372" lon="5.42852">
        <ele>483.78</ele>
        <time>2014-10-24T07:43:13Z</time>
      </trkpt>
      <trkpt lat="43.86363" lon="5.42864">
        <ele>483.04</ele>
        <time>2014-10-24T07:43:27Z</time>
      </trkpt>
      <trkpt lat="43.86361" lon="5.42869">
        <ele>482.74</ele>
        <time>2014-10-24T07:43:30Z</time>
      </trkpt>
      <trkpt lat="43.86353" lon="5.42876">
        <ele>480.75</ele>
        <time>2014-10-24T07:43:43Z</time>
      </trkpt>
      <trkpt lat="43.86344" lon="5.42875">
        <ele>480.24</ele>
        <time>2014-10-24T07:43:52Z</time>
      </trkpt>
      <trkpt lat="43.86333" lon="5.42881">
        <ele>480</ele>
        <time>2014-10-24T07:44:05Z</time>
      </trkpt>
      <trkpt lat="43.86329" lon="5.42904">
        <ele>478.25</ele>
        <time>2014-10-24T07:44:21Z</time>
      </trkpt>
      <trkpt lat="43.8633" lon="5.42931">
        <ele>476.43</ele>
        <time>2014-10-24T07:44:35Z</time>
      </trkpt>
      <trkpt lat="43.8632" lon="5.42936">
        <ele>475.41</ele>
        <time>2014-10-24T07:44:49Z</time>
      </trkpt>
      <trkpt lat="43.86313" lon="5.42941">
        <ele>472.93</ele>
        <time>2014-10-24T07:45:09Z</time>
      </trkpt>
      <trkpt lat="43.86315" lon="5.42953">
        <ele>470.15</ele>
        <time>2014-10-24T07:45:27Z</time>
      </trkpt>
      <trkpt lat="43.86322" lon="5.42971">
        <ele>467.15</ele>
        <time>2014-10-24T07:45:49Z</time>
      </trkpt>
      <trkpt lat="43.86327" lon="5.42984">
        <ele>464.07</ele>
        <time>2014-10-24T07:46:04Z</time>
      </trkpt>
      <trkpt lat="43.86341" lon="5.42991">
        <ele>461.01</ele>
        <time>2014-10-24T07:46:21Z</time>
      </trkpt>
      <trkpt lat="43.8636" lon="5.43001">
        <ele>458.5</ele>
        <time>2014-10-24T07:46:42Z</time>
      </trkpt>
      <trkpt lat="43.86363" lon="5.43">
        <ele>457.9</ele>
        <time>2014-10-24T07:47:03Z</time>
      </trkpt>
      <trkpt lat="43.86361" lon="5.42999">
        <ele>458.07</ele>
        <time>2014-10-24T07:47:22Z</time>
      </trkpt>
      <trkpt lat="43.8636" lon="5.42999">
        <ele>458.57</ele>
        <time>2014-10-24T07:47:43Z</time>
      </trkpt>
      <trkpt lat="43.86364" lon="5.43002">
        <ele>458.49</ele>
        <time>2014-10-24T07:48:16Z</time>
      </trkpt>
      <trkpt lat="43.86362" lon="5.43018">
        <ele>456.8</ele>
        <time>2014-10-24T07:48:31Z</time>
      </trkpt>
      <trkpt lat="43.86359" lon="5.43031">
        <ele>454.61</ele>
        <time>2014-10-24T07:48:41Z</time>
      </trkpt>
      <trkpt lat="43.8636" lon="5.4305">
        <ele>451.54</ele>
        <time>2014-10-24T07:48:55Z</time>
      </trkpt>
      <trkpt lat="43.86361" lon="5.43065">
        <ele>449.78</ele>
        <time>2014-10-24T07:49:05Z</time>
      </trkpt>
      <trkpt lat="43.86359" lon="5.43091">
        <ele>448.29</ele>
        <time>2014-10-24T07:49:21Z</time>
      </trkpt>
      <trkpt lat="43.86358" lon="5.43117">
        <ele>447.36</ele>
        <time>2014-10-24T07:49:38Z</time>
      </trkpt>
      <trkpt lat="43.86355" lon="5.43148">
        <ele>446.4</ele>
        <time>2014-10-24T07:49:59Z</time>
      </trkpt>
      <trkpt lat="43.86348" lon="5.4318">
        <ele>444.62</ele>
        <time>2014-10-24T07:50:18Z</time>
      </trkpt>
      <trkpt lat="43.86336" lon="5.43216">
        <ele>442.4</ele>
        <time>2014-10-24T07:50:43Z</time>
      </trkpt>
      <trkpt lat="43.86334" lon="5.43226">
        <ele>441.55</ele>
        <time>2014-10-24T07:50:51Z</time>
      </trkpt>
      <trkpt lat="43.86333" lon="5.43252">
        <ele>439.31</ele>
        <time>2014-10-24T07:51:11Z</time>
      </trkpt>
      <trkpt lat="43.86329" lon="5.43274">
        <ele>437.4</ele>
        <time>2014-10-24T07:51:28Z</time>
      </trkpt>
      <trkpt lat="43.86328" lon="5.43292">
        <ele>434.7</ele>
        <time>2014-10-24T07:51:48Z</time>
      </trkpt>
      <trkpt lat="43.86325" lon="5.43316">
        <ele>432.59</ele>
        <time>2014-10-24T07:52:11Z</time>
      </trkpt>
      <trkpt lat="43.86322" lon="5.43337">
        <ele>430.51</ele>
        <time>2014-10-24T07:52:31Z</time>
      </trkpt>
      <trkpt lat="43.86324" lon="5.43361">
        <ele>427.89</ele>
        <time>2014-10-24T07:52:53Z</time>
      </trkpt>
      <trkpt lat="43.86315" lon="5.43388">
        <ele>428.08</ele>
        <time>2014-10-24T07:53:13Z</time>
      </trkpt>
      <trkpt lat="43.86304" lon="5.43402">
        <ele>428.56</ele>
        <time>2014-10-24T07:53:31Z</time>
      </trkpt>
      <trkpt lat="43.86297" lon="5.43423">
        <ele>430.57</ele>
        <time>2014-10-24T07:53:58Z</time>
      </trkpt>
      <trkpt lat="43.86296" lon="5.43447">
        <ele>431.39</ele>
        <time>2014-10-24T07:54:18Z</time>
      </trkpt>
      <trkpt lat="43.86293" lon="5.43472">
        <ele>430.74</ele>
        <time>2014-10-24T07:54:42Z</time>
      </trkpt>
      <trkpt lat="43.86291" lon="5.43495">
        <ele>428.47</ele>
        <time>2014-10-24T07:55:05Z</time>
      </trkpt>
      <trkpt lat="43.86288" lon="5.43521">
        <ele>426.63</ele>
        <time>2014-10-24T07:55:29Z</time>
      </trkpt>
      <trkpt lat="43.86281" lon="5.43547">
        <ele>425.76</ele>
        <time>2014-10-24T07:55:50Z</time>
      </trkpt>
      <trkpt lat="43.8628" lon="5.4355">
        <ele>425.78</ele>
        <time>2014-10-24T07:55:52Z</time>
      </trkpt>
      <trkpt lat="43.86277" lon="5.43573">
        <ele>425.31</ele>
        <time>2014-10-24T07:56:10Z</time>
      </trkpt>
      <trkpt lat="43.86272" lon="5.43601">
        <ele>424.4</ele>
        <time>2014-10-24T07:56:26Z</time>
      </trkpt>
      <trkpt lat="43.86263" lon="5.43628">
        <ele>422.12</ele>
        <time>2014-10-24T07:56:45Z</time>
      </trkpt>
      <trkpt lat="43.86257" lon="5.43649">
        <ele>420.71</ele>
        <time>2014-10-24T07:57:00Z</time>
      </trkpt>
      <trkpt lat="43.86252" lon="5.43678">
        <ele>419.52</ele>
        <time>2014-10-24T07:57:18Z</time>
      </trkpt>
      <trkpt lat="43.86245" lon="5.43711">
        <ele>417.38</ele>
        <time>2014-10-24T07:57:42Z</time>
      </trkpt>
      <trkpt lat="43.86242" lon="5.43732">
        <ele>414.31</ele>
        <time>2014-10-24T07:58:01Z</time>
      </trkpt>
      <trkpt lat="43.86239" lon="5.43743">
        <ele>413.26</ele>
        <time>2014-10-24T07:58:14Z</time>
      </trkpt>
      <trkpt lat="43.86232" lon="5.43765">
        <ele>413.47</ele>
        <time>2014-10-24T07:58:35Z</time>
      </trkpt>
      <trkpt lat="43.86232" lon="5.43792">
        <ele>413.59</ele>
        <time>2014-10-24T07:58:54Z</time>
      </trkpt>
      <trkpt lat="43.86228" lon="5.43818">
        <ele>413.93</ele>
        <time>2014-10-24T07:59:13Z</time>
      </trkpt>
      <trkpt lat="43.86221" lon="5.4384">
        <ele>414.45</ele>
        <time>2014-10-24T07:59:32Z</time>
      </trkpt>
      <trkpt lat="43.86213" lon="5.43864">
        <ele>415.42</ele>
        <time>2014-10-24T07:59:51Z</time>
      </trkpt>
      <trkpt lat="43.86201" lon="5.43888">
        <ele>416.69</ele>
        <time>2014-10-24T08:00:12Z</time>
      </trkpt>
      <trkpt lat="43.86194" lon="5.43913">
        <ele>418.02</ele>
        <time>2014-10-24T08:00:32Z</time>
      </trkpt>
      <trkpt lat="43.86193" lon="5.43932">
        <ele>417.39</ele>
        <time>2014-10-24T08:00:49Z</time>
      </trkpt>
      <trkpt lat="43.86193" lon="5.43949">
        <ele>416.13</ele>
        <time>2014-10-24T08:01:04Z</time>
      </trkpt>
      <trkpt lat="43.86192" lon="5.43975">
        <ele>414.23</ele>
        <time>2014-10-24T08:01:25Z</time>
      </trkpt>
      <trkpt lat="43.86192" lon="5.43999">
        <ele>412.77</ele>
        <time>2014-10-24T08:01:43Z</time>
      </trkpt>
      <trkpt lat="43.86191" lon="5.44029">
        <ele>411.53</ele>
        <time>2014-10-24T08:02:06Z</time>
      </trkpt>
      <trkpt lat="43.86191" lon="5.44055">
        <ele>411.53</ele>
        <time>2014-10-24T08:02:26Z</time>
      </trkpt>
      <trkpt lat="43.8619" lon="5.44086">
        <ele>410.64</ele>
        <time>2014-10-24T08:02:46Z</time>
      </trkpt>
      <trkpt lat="43.86189" lon="5.44118">
        <ele>409.45</ele>
        <time>2014-10-24T08:03:06Z</time>
      </trkpt>
      <trkpt lat="43.86188" lon="5.44153">
        <ele>407.4</ele>
        <time>2014-10-24T08:03:30Z</time>
      </trkpt>
      <trkpt lat="43.86189" lon="5.4418">
        <ele>405.28</ele>
        <time>2014-10-24T08:03:52Z</time>
      </trkpt>
      <trkpt lat="43.86196" lon="5.4421">
        <ele>405.84</ele>
        <time>2014-10-24T08:04:14Z</time>
      </trkpt>
      <trkpt lat="43.86204" lon="5.44243">
        <ele>405.85</ele>
        <time>2014-10-24T08:04:37Z</time>
      </trkpt>
      <trkpt lat="43.86212" lon="5.44267">
        <ele>404.22</ele>
        <time>2014-10-24T08:04:56Z</time>
      </trkpt>
      <trkpt lat="43.86222" lon="5.44299">
        <ele>402.64</ele>
        <time>2014-10-24T08:05:19Z</time>
      </trkpt>
      <trkpt lat="43.8623" lon="5.44328">
        <ele>401.66</ele>
        <time>2014-10-24T08:05:37Z</time>
      </trkpt>
      <trkpt lat="43.86236" lon="5.44353">
        <ele>400.38</ele>
        <time>2014-10-24T08:05:52Z</time>
      </trkpt>
      <trkpt lat="43.86244" lon="5.44377">
        <ele>399.07</ele>
        <time>2014-10-24T08:06:08Z</time>
      </trkpt>
      <trkpt lat="43.86245" lon="5.44379">
        <ele>399</ele>
        <time>2014-10-24T08:06:09Z</time>
      </trkpt>
      <trkpt lat="43.86248" lon="5.44388">
        <ele>398.74</ele>
        <time>2014-10-24T08:06:15Z</time>
      </trkpt>
      <trkpt lat="43.86253" lon="5.44424">
        <ele>398.07</ele>
        <time>2014-10-24T08:06:35Z</time>
      </trkpt>
      <trkpt lat="43.86258" lon="5.44455">
        <ele>398.32</ele>
        <time>2014-10-24T08:06:55Z</time>
      </trkpt>
      <trkpt lat="43.86259" lon="5.44456">
        <ele>398.31</ele>
        <time>2014-10-24T08:06:56Z</time>
      </trkpt>
      <trkpt lat="43.86267" lon="5.44491">
        <ele>398.84</ele>
        <time>2014-10-24T08:07:17Z</time>
      </trkpt>
      <trkpt lat="43.86274" lon="5.44511">
        <ele>398.92</ele>
        <time>2014-10-24T08:07:34Z</time>
      </trkpt>
      <trkpt lat="43.86283" lon="5.44537">
        <ele>396.69</ele>
        <time>2014-10-24T08:07:56Z</time>
      </trkpt>
      <trkpt lat="43.86292" lon="5.44563">
        <ele>394.59</ele>
        <time>2014-10-24T08:08:15Z</time>
      </trkpt>
      <trkpt lat="43.86297" lon="5.44588">
        <ele>393.15</ele>
        <time>2014-10-24T08:08:32Z</time>
      </trkpt>
      <trkpt lat="43.86305" lon="5.44614">
        <ele>392.75</ele>
        <time>2014-10-24T08:08:51Z</time>
      </trkpt>
      <trkpt lat="43.8631" lon="5.44628">
        <ele>392.07</ele>
        <time>2014-10-24T08:08:59Z</time>
      </trkpt>
      <trkpt lat="43.86323" lon="5.44655">
        <ele>390.31</ele>
        <time>2014-10-24T08:09:17Z</time>
      </trkpt>
      <trkpt lat="43.86334" lon="5.44671">
        <ele>389.36</ele>
        <time>2014-10-24T08:09:33Z</time>
      </trkpt>
      <trkpt lat="43.8635" lon="5.4469">
        <ele>387.98</ele>
        <time>2014-10-24T08:09:50Z</time>
      </trkpt>
      <trkpt lat="43.86359" lon="5.44701">
        <ele>386.9</ele>
        <time>2014-10-24T08:10:06Z</time>
      </trkpt>
      <trkpt lat="43.86371" lon="5.44711">
        <ele>386.75</ele>
        <time>2014-10-24T08:10:21Z</time>
      </trkpt>
      <trkpt lat="43.86378" lon="5.44732">
        <ele>384.79</ele>
        <time>2014-10-24T08:10:39Z</time>
      </trkpt>
      <trkpt lat="43.86383" lon="5.44747">
        <ele>382.35</ele>
        <time>2014-10-24T08:10:53Z</time>
      </trkpt>
      <trkpt lat="43.86391" lon="5.44768">
        <ele>380.24</ele>
        <time>2014-10-24T08:11:07Z</time>
      </trkpt>
      <trkpt lat="43.86398" lon="5.44786">
        <ele>378.93</ele>
        <time>2014-10-24T08:11:20Z</time>
      </trkpt>
      <trkpt lat="43.86399" lon="5.44795">
        <ele>378.62</ele>
        <time>2014-10-24T08:11:24Z</time>
      </trkpt>
      <trkpt lat="43.86404" lon="5.44817">
        <ele>377.65</ele>
        <time>2014-10-24T08:11:37Z</time>
      </trkpt>
      <trkpt lat="43.86411" lon="5.44842">
        <ele>375.85</ele>
        <time>2014-10-24T08:11:52Z</time>
      </trkpt>
      <trkpt lat="43.86417" lon="5.44859">
        <ele>374.43</ele>
        <time>2014-10-24T08:12:03Z</time>
      </trkpt>
      <trkpt lat="43.86419" lon="5.44866">
        <ele>373.99</ele>
        <time>2014-10-24T08:12:06Z</time>
      </trkpt>
      <trkpt lat="43.86432" lon="5.44889">
        <ele>372.26</ele>
        <time>2014-10-24T08:12:22Z</time>
      </trkpt>
      <trkpt lat="43.86451" lon="5.44905">
        <ele>372.19</ele>
        <time>2014-10-24T08:12:41Z</time>
      </trkpt>
      <trkpt lat="43.86459" lon="5.44912">
        <ele>372.13</ele>
        <time>2014-10-24T08:12:53Z</time>
      </trkpt>
      <trkpt lat="43.86473" lon="5.44921">
        <ele>371.27</ele>
        <time>2014-10-24T08:13:12Z</time>
      </trkpt>
      <trkpt lat="43.86487" lon="5.44926">
        <ele>369.68</ele>
        <time>2014-10-24T08:13:28Z</time>
      </trkpt>
      <trkpt lat="43.86499" lon="5.44934">
        <ele>368.29</ele>
        <time>2014-10-24T08:13:39Z</time>
      </trkpt>
      <trkpt lat="43.86516" lon="5.44947">
        <ele>366.6</ele>
        <time>2014-10-24T08:13:55Z</time>
      </trkpt>
      <trkpt lat="43.8653" lon="5.44962">
        <ele>364.66</ele>
        <time>2014-10-24T08:14:12Z</time>
      </trkpt>
      <trkpt lat="43.86551" lon="5.44982">
        <ele>362.21</ele>
        <time>2014-10-24T08:14:32Z</time>
      </trkpt>
      <trkpt lat="43.86567" lon="5.44998">
        <ele>360.55</ele>
        <time>2014-10-24T08:14:48Z</time>
      </trkpt>
      <trkpt lat="43.8658" lon="5.45014">
        <ele>358.97</ele>
        <time>2014-10-24T08:15:03Z</time>
      </trkpt>
      <trkpt lat="43.86599" lon="5.45036">
        <ele>356.43</ele>
        <time>2014-10-24T08:15:23Z</time>
      </trkpt>
      <trkpt lat="43.86618" lon="5.45056">
        <ele>353.96</ele>
        <time>2014-10-24T08:15:43Z</time>
      </trkpt>
      <trkpt lat="43.86632" lon="5.45071">
        <ele>351.73</ele>
        <time>2014-10-24T08:16:02Z</time>
      </trkpt>
      <trkpt lat="43.86632" lon="5.45074">
        <ele>350.8</ele>
        <time>2014-10-24T08:16:15Z</time>
      </trkpt>
      <trkpt lat="43.86642" lon="5.45087">
        <ele>350.68</ele>
        <time>2014-10-24T08:16:31Z</time>
      </trkpt>
      <trkpt lat="43.86658" lon="5.45107">
        <ele>348.48</ele>
        <time>2014-10-24T08:16:51Z</time>
      </trkpt>
      <trkpt lat="43.8667" lon="5.45129">
        <ele>345.93</ele>
        <time>2014-10-24T08:17:10Z</time>
      </trkpt>
      <trkpt lat="43.86678" lon="5.45158">
        <ele>342.78</ele>
        <time>2014-10-24T08:17:30Z</time>
      </trkpt>
      <trkpt lat="43.86679" lon="5.45185">
        <ele>339.65</ele>
        <time>2014-10-24T08:17:48Z</time>
      </trkpt>
      <trkpt lat="43.86682" lon="5.45206">
        <ele>336.62</ele>
        <time>2014-10-24T08:18:01Z</time>
      </trkpt>
      <trkpt lat="43.86685" lon="5.45236">
        <ele>333.25</ele>
        <time>2014-10-24T08:18:19Z</time>
      </trkpt>
      <trkpt lat="43.86684" lon="5.45261">
        <ele>330.16</ele>
        <time>2014-10-24T08:18:35Z</time>
      </trkpt>
      <trkpt lat="43.8668" lon="5.45285">
        <ele>327.05</ele>
        <time>2014-10-24T08:18:52Z</time>
      </trkpt>
      <trkpt lat="43.86677" lon="5.45309">
        <ele>323.65</ele>
        <time>2014-10-24T08:19:09Z</time>
      </trkpt>
      <trkpt lat="43.86675" lon="5.45333">
        <ele>320.59</ele>
        <time>2014-10-24T08:19:25Z</time>
      </trkpt>
      <trkpt lat="43.86674" lon="5.4536">
        <ele>317.57</ele>
        <time>2014-10-24T08:19:43Z</time>
      </trkpt>
      <trkpt lat="43.86675" lon="5.45386">
        <ele>314.46</ele>
        <time>2014-10-24T08:19:59Z</time>
      </trkpt>
      <trkpt lat="43.86675" lon="5.4541">
        <ele>311.47</ele>
        <time>2014-10-24T08:20:17Z</time>
      </trkpt>
      <trkpt lat="43.86673" lon="5.45439">
        <ele>308.37</ele>
        <time>2014-10-24T08:20:36Z</time>
      </trkpt>
      <trkpt lat="43.86672" lon="5.45463">
        <ele>305.66</ele>
        <time>2014-10-24T08:20:53Z</time>
      </trkpt>
      <trkpt lat="43.86666" lon="5.4549">
        <ele>302.57</ele>
        <time>2014-10-24T08:21:12Z</time>
      </trkpt>
      <trkpt lat="43.86666" lon="5.45491">
        <ele>302.17</ele>
        <time>2014-10-24T08:21:13Z</time>
      </trkpt>
      <trkpt lat="43.86658" lon="5.45523">
        <ele>298.89</ele>
        <time>2014-10-24T08:21:30Z</time>
      </trkpt>
      <trkpt lat="43.86648" lon="5.45557">
        <ele>295.77</ele>
        <time>2014-10-24T08:21:52Z</time>
      </trkpt>
      <trkpt lat="43.86642" lon="5.4559">
        <ele>292.72</ele>
        <time>2014-10-24T08:22:13Z</time>
      </trkpt>
      <trkpt lat="43.86635" lon="5.45623">
        <ele>289.63</ele>
        <time>2014-10-24T08:22:34Z</time>
      </trkpt>
      <trkpt lat="43.86622" lon="5.45654">
        <ele>286.61</ele>
        <time>2014-10-24T08:22:57Z</time>
      </trkpt>
      <trkpt lat="43.86606" lon="5.45679">
        <ele>283.66</ele>
        <time>2014-10-24T08:23:20Z</time>
      </trkpt>
      <trkpt lat="43.86596" lon="5.45709">
        <ele>280.49</ele>
        <time>2014-10-24T08:23:41Z</time>
      </trkpt>
      <trkpt lat="43.8659" lon="5.45734">
        <ele>277.47</ele>
        <time>2014-10-24T08:23:57Z</time>
      </trkpt>
      <trkpt lat="43.86585" lon="5.45756">
        <ele>274.68</ele>
        <time>2014-10-24T08:24:19Z</time>
      </trkpt>
      <trkpt lat="43.86585" lon="5.45756">
        <ele>273.56</ele>
        <time>2014-10-24T08:24:29Z</time>
      </trkpt>
      <trkpt lat="43.86586" lon="5.45758">
        <ele>273.55</ele>
        <time>2014-10-24T08:25:03Z</time>
      </trkpt>
      <trkpt lat="43.86586" lon="5.45759">
        <ele>273.51</ele>
        <time>2014-10-24T08:25:41Z</time>
      </trkpt>
      <trkpt lat="43.86585" lon="5.45756">
        <ele>273.2</ele>
        <time>2014-10-24T08:26:24Z</time>
      </trkpt>
      <trkpt lat="43.86587" lon="5.45759">
        <ele>273.42</ele>
        <time>2014-10-24T08:27:02Z</time>
      </trkpt>
      <trkpt lat="43.86586" lon="5.45758">
        <ele>272.96</ele>
        <time>2014-10-24T08:28:24Z</time>
      </trkpt>
      <trkpt lat="43.86584" lon="5.45757">
        <ele>273.79</ele>
        <time>2014-10-24T08:29:01Z</time>
      </trkpt>
      <trkpt lat="43.86583" lon="5.45758">
        <ele>273.92</ele>
        <time>2014-10-24T08:29:43Z</time>
      </trkpt>
      <trkpt lat="43.86584" lon="5.45758">
        <ele>272.64</ele>
        <time>2014-10-24T08:30:02Z</time>
      </trkpt>
      <trkpt lat="43.86584" lon="5.45756">
        <ele>273.82</ele>
        <time>2014-10-24T08:30:19Z</time>
      </trkpt>
      <trkpt lat="43.86583" lon="5.45764">
        <ele>273.51</ele>
        <time>2014-10-24T08:30:34Z</time>
      </trkpt>
      <trkpt lat="43.86575" lon="5.45783">
        <ele>271.84</ele>
        <time>2014-10-24T08:30:54Z</time>
      </trkpt>
      <trkpt lat="43.86572" lon="5.45804">
        <ele>271.69</ele>
        <time>2014-10-24T08:31:11Z</time>
      </trkpt>
      <trkpt lat="43.86566" lon="5.45831">
        <ele>272.51</ele>
        <time>2014-10-24T08:31:33Z</time>
      </trkpt>
      <trkpt lat="43.86561" lon="5.45852">
        <ele>271.84</ele>
        <time>2014-10-24T08:31:55Z</time>
      </trkpt>
      <trkpt lat="43.86554" lon="5.45874">
        <ele>269.83</ele>
        <time>2014-10-24T08:32:15Z</time>
      </trkpt>
      <trkpt lat="43.86535" lon="5.45902">
        <ele>269.47</ele>
        <time>2014-10-24T08:32:39Z</time>
      </trkpt>
      <trkpt lat="43.86523" lon="5.45923">
        <ele>270.17</ele>
        <time>2014-10-24T08:33:00Z</time>
      </trkpt>
      <trkpt lat="43.86518" lon="5.45927">
        <ele>270.45</ele>
        <time>2014-10-24T08:33:04Z</time>
      </trkpt>
      <trkpt lat="43.86505" lon="5.45951">
        <ele>270.99</ele>
        <time>2014-10-24T08:33:24Z</time>
      </trkpt>
      <trkpt lat="43.86491" lon="5.45979">
        <ele>270.78</ele>
        <time>2014-10-24T08:33:42Z</time>
      </trkpt>
      <trkpt lat="43.86481" lon="5.46007">
        <ele>270.51</ele>
        <time>2014-10-24T08:34:02Z</time>
      </trkpt>
      <trkpt lat="43.8647" lon="5.46012">
        <ele>271.75</ele>
        <time>2014-10-24T08:34:15Z</time>
      </trkpt>
      <trkpt lat="43.86452" lon="5.46016">
        <ele>274.88</ele>
        <time>2014-10-24T08:34:35Z</time>
      </trkpt>
      <trkpt lat="43.86434" lon="5.4602">
        <ele>277.98</ele>
        <time>2014-10-24T08:34:54Z</time>
      </trkpt>
      <trkpt lat="43.86411" lon="5.46026">
        <ele>281.06</ele>
        <time>2014-10-24T08:35:18Z</time>
      </trkpt>
      <trkpt lat="43.86392" lon="5.46038">
        <ele>282.87</ele>
        <time>2014-10-24T08:35:44Z</time>
      </trkpt>
      <trkpt lat="43.86379" lon="5.46046">
        <ele>283.83</ele>
        <time>2014-10-24T08:36:06Z</time>
      </trkpt>
      <trkpt lat="43.86372" lon="5.46053">
        <ele>284.31</ele>
        <time>2014-10-24T08:36:26Z</time>
      </trkpt>
      <trkpt lat="43.86357" lon="5.46058">
        <ele>285.09</ele>
        <time>2014-10-24T08:36:45Z</time>
      </trkpt>
      <trkpt lat="43.8634" lon="5.4607">
        <ele>286.3</ele>
        <time>2014-10-24T08:37:07Z</time>
      </trkpt>
      <trkpt lat="43.86325" lon="5.46086">
        <ele>287.52</ele>
        <time>2014-10-24T08:37:32Z</time>
      </trkpt>
      <trkpt lat="43.86306" lon="5.461">
        <ele>288.54</ele>
        <time>2014-10-24T08:37:56Z</time>
      </trkpt>
      <trkpt lat="43.86291" lon="5.46112">
        <ele>287.91</ele>
        <time>2014-10-24T08:38:16Z</time>
      </trkpt>
      <trkpt lat="43.86278" lon="5.46132">
        <ele>287.85</ele>
        <time>2014-10-24T08:38:38Z</time>
      </trkpt>
      <trkpt lat="43.86277" lon="5.46135">
        <ele>287.92</ele>
        <time>2014-10-24T08:38:41Z</time>
      </trkpt>
      <trkpt lat="43.8626" lon="5.4616">
        <ele>289.29</ele>
        <time>2014-10-24T08:39:03Z</time>
      </trkpt>
      <trkpt lat="43.86241" lon="5.46185">
        <ele>290.23</ele>
        <time>2014-10-24T08:39:23Z</time>
      </trkpt>
      <trkpt lat="43.86224" lon="5.46205">
        <ele>290.9</ele>
        <time>2014-10-24T08:39:44Z</time>
      </trkpt>
      <trkpt lat="43.8621" lon="5.4623">
        <ele>290.88</ele>
        <time>2014-10-24T08:40:04Z</time>
      </trkpt>
      <trkpt lat="43.86191" lon="5.46254">
        <ele>291.76</ele>
        <time>2014-10-24T08:40:27Z</time>
      </trkpt>
      <trkpt lat="43.86173" lon="5.46276">
        <ele>293.71</ele>
        <time>2014-10-24T08:40:49Z</time>
      </trkpt>
      <trkpt lat="43.86162" lon="5.46306">
        <ele>295.4</ele>
        <time>2014-10-24T08:41:11Z</time>
      </trkpt>
      <trkpt lat="43.86142" lon="5.46331">
        <ele>296.22</ele>
        <time>2014-10-24T08:41:32Z</time>
      </trkpt>
      <trkpt lat="43.86129" lon="5.46351">
        <ele>296.52</ele>
        <time>2014-10-24T08:41:52Z</time>
      </trkpt>
      <trkpt lat="43.86112" lon="5.4637">
        <ele>297.83</ele>
        <time>2014-10-24T08:42:14Z</time>
      </trkpt>
      <trkpt lat="43.86095" lon="5.46392">
        <ele>297.82</ele>
        <time>2014-10-24T08:42:34Z</time>
      </trkpt>
      <trkpt lat="43.86081" lon="5.46409">
        <ele>299.54</ele>
        <time>2014-10-24T08:42:55Z</time>
      </trkpt>
      <trkpt lat="43.86061" lon="5.46427">
        <ele>298.71</ele>
        <time>2014-10-24T08:43:16Z</time>
      </trkpt>
      <trkpt lat="43.86049" lon="5.46441">
        <ele>299.3</ele>
        <time>2014-10-24T08:43:36Z</time>
      </trkpt>
      <trkpt lat="43.86044" lon="5.46443">
        <ele>299.45</ele>
        <time>2014-10-24T08:43:40Z</time>
      </trkpt>
      <trkpt lat="43.86037" lon="5.46448">
        <ele>299.95</ele>
        <time>2014-10-24T08:44:13Z</time>
      </trkpt>
      <trkpt lat="43.86026" lon="5.46451">
        <ele>300.14</ele>
        <time>2014-10-24T08:44:40Z</time>
      </trkpt>
      <trkpt lat="43.86032" lon="5.46463">
        <ele>300.55</ele>
        <time>2014-10-24T08:44:58Z</time>
      </trkpt>
      <trkpt lat="43.86027" lon="5.46476">
        <ele>300.08</ele>
        <time>2014-10-24T08:45:19Z</time>
      </trkpt>
      <trkpt lat="43.86028" lon="5.4648">
        <ele>300</ele>
        <time>2014-10-24T08:45:24Z</time>
      </trkpt>
      <trkpt lat="43.86018" lon="5.465">
        <ele>301.44</ele>
        <time>2014-10-24T08:45:44Z</time>
      </trkpt>
      <trkpt lat="43.86006" lon="5.46523">
        <ele>302.81</ele>
        <time>2014-10-24T08:46:06Z</time>
      </trkpt>
      <trkpt lat="43.85994" lon="5.46552">
        <ele>302.18</ele>
        <time>2014-10-24T08:46:28Z</time>
      </trkpt>
      <trkpt lat="43.85976" lon="5.46576">
        <ele>301.97</ele>
        <time>2014-10-24T08:46:52Z</time>
      </trkpt>
      <trkpt lat="43.85968" lon="5.46594">
        <ele>303.4</ele>
        <time>2014-10-24T08:47:12Z</time>
      </trkpt>
      <trkpt lat="43.85955" lon="5.4662">
        <ele>302.31</ele>
        <time>2014-10-24T08:47:32Z</time>
      </trkpt>
      <trkpt lat="43.8594" lon="5.46647">
        <ele>302.49</ele>
        <time>2014-10-24T08:47:53Z</time>
      </trkpt>
      <trkpt lat="43.85933" lon="5.46669">
        <ele>302.79</ele>
        <time>2014-10-24T08:48:12Z</time>
      </trkpt>
      <trkpt lat="43.85921" lon="5.46694">
        <ele>303.71</ele>
        <time>2014-10-24T08:48:32Z</time>
      </trkpt>
      <trkpt lat="43.85908" lon="5.46715">
        <ele>304.65</ele>
        <time>2014-10-24T08:48:53Z</time>
      </trkpt>
      <trkpt lat="43.85893" lon="5.46747">
        <ele>305.14</ele>
        <time>2014-10-24T08:49:16Z</time>
      </trkpt>
      <trkpt lat="43.85882" lon="5.46775">
        <ele>304.07</ele>
        <time>2014-10-24T08:49:38Z</time>
      </trkpt>
      <trkpt lat="43.85869" lon="5.468">
        <ele>302.93</ele>
        <time>2014-10-24T08:49:58Z</time>
      </trkpt>
      <trkpt lat="43.85859" lon="5.4682">
        <ele>302.24</ele>
        <time>2014-10-24T08:50:16Z</time>
      </trkpt>
      <trkpt lat="43.85848" lon="5.46847">
        <ele>300.38</ele>
        <time>2014-10-24T08:50:38Z</time>
      </trkpt>
      <trkpt lat="43.85835" lon="5.46874">
        <ele>299.68</ele>
        <time>2014-10-24T08:50:59Z</time>
      </trkpt>
      <trkpt lat="43.85824" lon="5.46889">
        <ele>299.55</ele>
        <time>2014-10-24T08:51:17Z</time>
      </trkpt>
      <trkpt lat="43.8581" lon="5.46912">
        <ele>299.7</ele>
        <time>2014-10-24T08:51:38Z</time>
      </trkpt>
      <trkpt lat="43.85794" lon="5.46939">
        <ele>301.19</ele>
        <time>2014-10-24T08:52:01Z</time>
      </trkpt>
      <trkpt lat="43.85782" lon="5.46957">
        <ele>301.2</ele>
        <time>2014-10-24T08:52:22Z</time>
      </trkpt>
      <trkpt lat="43.85765" lon="5.46972">
        <ele>301.31</ele>
        <time>2014-10-24T08:52:38Z</time>
      </trkpt>
      <trkpt lat="43.85743" lon="5.46995">
        <ele>301.9</ele>
        <time>2014-10-24T08:53:00Z</time>
      </trkpt>
      <trkpt lat="43.85729" lon="5.47013">
        <ele>301.75</ele>
        <time>2014-10-24T08:53:20Z</time>
      </trkpt>
      <trkpt lat="43.85719" lon="5.47039">
        <ele>301.76</ele>
        <time>2014-10-24T08:53:42Z</time>
      </trkpt>
      <trkpt lat="43.85705" lon="5.47063">
        <ele>299.61</ele>
        <time>2014-10-24T08:54:04Z</time>
      </trkpt>
      <trkpt lat="43.85697" lon="5.47077">
        <ele>296.52</ele>
        <time>2014-10-24T08:54:23Z</time>
      </trkpt>
      <trkpt lat="43.85697" lon="5.47078">
        <ele>296.33</ele>
        <time>2014-10-24T08:54:25Z</time>
      </trkpt>
      <trkpt lat="43.8569" lon="5.47103">
        <ele>296.62</ele>
        <time>2014-10-24T08:54:47Z</time>
      </trkpt>
      <trkpt lat="43.85683" lon="5.47126">
        <ele>298.41</ele>
        <time>2014-10-24T08:55:07Z</time>
      </trkpt>
      <trkpt lat="43.85683" lon="5.4714">
        <ele>299.33</ele>
        <time>2014-10-24T08:55:23Z</time>
      </trkpt>
      <trkpt lat="43.85679" lon="5.47143">
        <ele>299.51</ele>
        <time>2014-10-24T08:55:29Z</time>
      </trkpt>
      <trkpt lat="43.85673" lon="5.47145">
        <ele>299.96</ele>
        <time>2014-10-24T08:55:57Z</time>
      </trkpt>
      <trkpt lat="43.85674" lon="5.47147">
        <ele>299.96</ele>
        <time>2014-10-24T08:56:20Z</time>
      </trkpt>
      <trkpt lat="43.85675" lon="5.47157">
        <ele>299.82</ele>
        <time>2014-10-24T08:56:40Z</time>
      </trkpt>
      <trkpt lat="43.85676" lon="5.47174">
        <ele>300.8</ele>
        <time>2014-10-24T08:57:01Z</time>
      </trkpt>
      <trkpt lat="43.8567" lon="5.47185">
        <ele>301.73</ele>
        <time>2014-10-24T08:57:23Z</time>
      </trkpt>
      <trkpt lat="43.85665" lon="5.4719">
        <ele>301.88</ele>
        <time>2014-10-24T08:57:34Z</time>
      </trkpt>
      <trkpt lat="43.85655" lon="5.47196">
        <ele>302.03</ele>
        <time>2014-10-24T08:58:02Z</time>
      </trkpt>
      <trkpt lat="43.85656" lon="5.47201">
        <ele>302.12</ele>
        <time>2014-10-24T08:58:28Z</time>
      </trkpt>
      <trkpt lat="43.85641" lon="5.47196">
        <ele>301.74</ele>
        <time>2014-10-24T08:59:01Z</time>
      </trkpt>
      <trkpt lat="43.85646" lon="5.472">
        <ele>301.28</ele>
        <time>2014-10-24T08:59:46Z</time>
      </trkpt>
      <trkpt lat="43.85642" lon="5.47201">
        <ele>300.94</ele>
        <time>2014-10-24T09:00:19Z</time>
      </trkpt>
      <trkpt lat="43.85642" lon="5.47201">
        <ele>300.94</ele>
        <time>2014-10-24T09:00:20Z</time>
      </trkpt>
      <trkpt lat="43.8564" lon="5.47196">
        <ele>300.98</ele>
        <time>2014-10-24T09:00:54Z</time>
      </trkpt>
      <trkpt lat="43.8564" lon="5.47197">
        <ele>300.35</ele>
        <time>2014-10-24T09:01:25Z</time>
      </trkpt>
      <trkpt lat="43.85642" lon="5.47201">
        <ele>300.38</ele>
        <time>2014-10-24T09:01:54Z</time>
      </trkpt>
      <trkpt lat="43.85653" lon="5.47206">
        <ele>300.07</ele>
        <time>2014-10-24T09:02:27Z</time>
      </trkpt>
      <trkpt lat="43.85649" lon="5.47205">
        <ele>299.99</ele>
        <time>2014-10-24T09:02:57Z</time>
      </trkpt>
      <trkpt lat="43.85643" lon="5.47211">
        <ele>302.17</ele>
        <time>2014-10-24T09:03:21Z</time>
      </trkpt>
      <trkpt lat="43.85634" lon="5.47219">
        <ele>304.63</ele>
        <time>2014-10-24T09:03:43Z</time>
      </trkpt>
      <trkpt lat="43.85629" lon="5.4723">
        <ele>307.71</ele>
        <time>2014-10-24T09:04:06Z</time>
      </trkpt>
      <trkpt lat="43.85621" lon="5.47242">
        <ele>310.88</ele>
        <time>2014-10-24T09:04:27Z</time>
      </trkpt>
      <trkpt lat="43.85612" lon="5.47255">
        <ele>312.92</ele>
        <time>2014-10-24T09:04:48Z</time>
      </trkpt>
      <trkpt lat="43.85598" lon="5.47272">
        <ele>315.97</ele>
        <time>2014-10-24T09:05:15Z</time>
      </trkpt>
      <trkpt lat="43.85588" lon="5.47287">
        <ele>318.31</ele>
        <time>2014-10-24T09:05:36Z</time>
      </trkpt>
      <trkpt lat="43.85577" lon="5.47293">
        <ele>320.28</ele>
        <time>2014-10-24T09:05:57Z</time>
      </trkpt>
      <trkpt lat="43.85558" lon="5.47298">
        <ele>322.6</ele>
        <time>2014-10-24T09:06:18Z</time>
      </trkpt>
      <trkpt lat="43.85542" lon="5.47299">
        <ele>324.07</ele>
        <time>2014-10-24T09:06:37Z</time>
      </trkpt>
      <trkpt lat="43.85537" lon="5.47301">
        <ele>324.16</ele>
        <time>2014-10-24T09:06:48Z</time>
      </trkpt>
      <trkpt lat="43.8552" lon="5.47299">
        <ele>325.35</ele>
        <time>2014-10-24T09:07:09Z</time>
      </trkpt>
      <trkpt lat="43.85504" lon="5.47298">
        <ele>326.94</ele>
        <time>2014-10-24T09:07:26Z</time>
      </trkpt>
      <trkpt lat="43.85483" lon="5.47298">
        <ele>329.68</ele>
        <time>2014-10-24T09:07:51Z</time>
      </trkpt>
      <trkpt lat="43.85469" lon="5.47298">
        <ele>332.14</ele>
        <time>2014-10-24T09:08:11Z</time>
      </trkpt>
      <trkpt lat="43.85456" lon="5.473">
        <ele>335.03</ele>
        <time>2014-10-24T09:08:31Z</time>
      </trkpt>
      <trkpt lat="43.85441" lon="5.47306">
        <ele>336.01</ele>
        <time>2014-10-24T09:08:51Z</time>
      </trkpt>
      <trkpt lat="43.85432" lon="5.4732">
        <ele>335.89</ele>
        <time>2014-10-24T09:09:09Z</time>
      </trkpt>
      <trkpt lat="43.85417" lon="5.4734">
        <ele>336.66</ele>
        <time>2014-10-24T09:09:30Z</time>
      </trkpt>
      <trkpt lat="43.85407" lon="5.47363">
        <ele>336.81</ele>
        <time>2014-10-24T09:09:53Z</time>
      </trkpt>
      <trkpt lat="43.85395" lon="5.47386">
        <ele>337.9</ele>
        <time>2014-10-24T09:10:12Z</time>
      </trkpt>
      <trkpt lat="43.85388" lon="5.47402">
        <ele>339.74</ele>
        <time>2014-10-24T09:10:30Z</time>
      </trkpt>
      <trkpt lat="43.85377" lon="5.47417">
        <ele>341.07</ele>
        <time>2014-10-24T09:10:50Z</time>
      </trkpt>
      <trkpt lat="43.85357" lon="5.4743">
        <ele>340.88</ele>
        <time>2014-10-24T09:11:12Z</time>
      </trkpt>
      <trkpt lat="43.85339" lon="5.47437">
        <ele>341.65</ele>
        <time>2014-10-24T09:11:33Z</time>
      </trkpt>
      <trkpt lat="43.85325" lon="5.47444">
        <ele>342.44</ele>
        <time>2014-10-24T09:11:48Z</time>
      </trkpt>
      <trkpt lat="43.85306" lon="5.4745">
        <ele>343.46</ele>
        <time>2014-10-24T09:12:09Z</time>
      </trkpt>
      <trkpt lat="43.85281" lon="5.47456">
        <ele>345.22</ele>
        <time>2014-10-24T09:12:32Z</time>
      </trkpt>
      <trkpt lat="43.85255" lon="5.47447">
        <ele>348.02</ele>
        <time>2014-10-24T09:12:57Z</time>
      </trkpt>
      <trkpt lat="43.85239" lon="5.47439">
        <ele>350.32</ele>
        <time>2014-10-24T09:13:19Z</time>
      </trkpt>
      <trkpt lat="43.85226" lon="5.47427">
        <ele>352.18</ele>
        <time>2014-10-24T09:13:41Z</time>
      </trkpt>
      <trkpt lat="43.85223" lon="5.47417">
        <ele>354.2</ele>
        <time>2014-10-24T09:14:01Z</time>
      </trkpt>
      <trkpt lat="43.85228" lon="5.47411">
        <ele>354.05</ele>
        <time>2014-10-24T09:14:19Z</time>
      </trkpt>
      <trkpt lat="43.85225" lon="5.47409">
        <ele>353.72</ele>
        <time>2014-10-24T09:14:49Z</time>
      </trkpt>
      <trkpt lat="43.85218" lon="5.47404">
        <ele>353.63</ele>
        <time>2014-10-24T09:15:19Z</time>
      </trkpt>
      <trkpt lat="43.85218" lon="5.47402">
        <ele>353.33</ele>
        <time>2014-10-24T09:15:48Z</time>
      </trkpt>
      <trkpt lat="43.85218" lon="5.47404">
        <ele>352.44</ele>
        <time>2014-10-24T09:16:55Z</time>
      </trkpt>
      <trkpt lat="43.85216" lon="5.47403">
        <ele>351.82</ele>
        <time>2014-10-24T09:18:03Z</time>
      </trkpt>
      <trkpt lat="43.85215" lon="5.47405">
        <ele>351.36</ele>
        <time>2014-10-24T09:18:47Z</time>
      </trkpt>
      <trkpt lat="43.85218" lon="5.47404">
        <ele>351.09</ele>
        <time>2014-10-24T09:19:20Z</time>
      </trkpt>
      <trkpt lat="43.85218" lon="5.47405">
        <ele>350.57</ele>
        <time>2014-10-24T09:20:24Z</time>
      </trkpt>
      <trkpt lat="43.85219" lon="5.47405">
        <ele>350.02</ele>
        <time>2014-10-24T09:21:22Z</time>
      </trkpt>
      <trkpt lat="43.85219" lon="5.47404">
        <ele>350.7</ele>
        <time>2014-10-24T09:21:43Z</time>
      </trkpt>
      <trkpt lat="43.85221" lon="5.47398">
        <ele>350.7</ele>
        <time>2014-10-24T09:22:02Z</time>
      </trkpt>
      <trkpt lat="43.85223" lon="5.47391">
        <ele>352.34</ele>
        <time>2014-10-24T09:22:24Z</time>
      </trkpt>
      <trkpt lat="43.85226" lon="5.47377">
        <ele>353.57</ele>
        <time>2014-10-24T09:22:46Z</time>
      </trkpt>
      <trkpt lat="43.85232" lon="5.47353">
        <ele>356.24</ele>
        <time>2014-10-24T09:23:17Z</time>
      </trkpt>
      <trkpt lat="43.85233" lon="5.4733">
        <ele>357.89</ele>
        <time>2014-10-24T09:23:42Z</time>
      </trkpt>
      <trkpt lat="43.85242" lon="5.47314">
        <ele>360.46</ele>
        <time>2014-10-24T09:24:04Z</time>
      </trkpt>
      <trkpt lat="43.85259" lon="5.47299">
        <ele>363.53</ele>
        <time>2014-10-24T09:24:31Z</time>
      </trkpt>
      <trkpt lat="43.85276" lon="5.47284">
        <ele>366.23</ele>
        <time>2014-10-24T09:24:56Z</time>
      </trkpt>
      <trkpt lat="43.85278" lon="5.47267">
        <ele>366.27</ele>
        <time>2014-10-24T09:25:13Z</time>
      </trkpt>
      <trkpt lat="43.85273" lon="5.47245">
        <ele>367.06</ele>
        <time>2014-10-24T09:25:33Z</time>
      </trkpt>
      <trkpt lat="43.85268" lon="5.47221">
        <ele>368.83</ele>
        <time>2014-10-24T09:25:55Z</time>
      </trkpt>
      <trkpt lat="43.85268" lon="5.47207">
        <ele>370.09</ele>
        <time>2014-10-24T09:26:08Z</time>
      </trkpt>
      <trkpt lat="43.85264" lon="5.47189">
        <ele>372.13</ele>
        <time>2014-10-24T09:26:31Z</time>
      </trkpt>
      <trkpt lat="43.8526" lon="5.47178">
        <ele>374.13</ele>
        <time>2014-10-24T09:26:54Z</time>
      </trkpt>
      <trkpt lat="43.85257" lon="5.4717">
        <ele>377.21</ele>
        <time>2014-10-24T09:27:15Z</time>
      </trkpt>
      <trkpt lat="43.85255" lon="5.47162">
        <ele>380.28</ele>
        <time>2014-10-24T09:27:32Z</time>
      </trkpt>
      <trkpt lat="43.85253" lon="5.47144">
        <ele>383.37</ele>
        <time>2014-10-24T09:27:53Z</time>
      </trkpt>
      <trkpt lat="43.8525" lon="5.47125">
        <ele>385.98</ele>
        <time>2014-10-24T09:28:14Z</time>
      </trkpt>
      <trkpt lat="43.85249" lon="5.47124">
        <ele>386.2</ele>
        <time>2014-10-24T09:28:15Z</time>
      </trkpt>
      <trkpt lat="43.85244" lon="5.47105">
        <ele>389.46</ele>
        <time>2014-10-24T09:28:39Z</time>
      </trkpt>
      <trkpt lat="43.85238" lon="5.47087">
        <ele>392.37</ele>
        <time>2014-10-24T09:29:01Z</time>
      </trkpt>
      <trkpt lat="43.85234" lon="5.47066">
        <ele>395.3</ele>
        <time>2014-10-24T09:29:23Z</time>
      </trkpt>
      <trkpt lat="43.85233" lon="5.47051">
        <ele>397.55</ele>
        <time>2014-10-24T09:29:41Z</time>
      </trkpt>
      <trkpt lat="43.85227" lon="5.47035">
        <ele>400.37</ele>
        <time>2014-10-24T09:30:02Z</time>
      </trkpt>
      <trkpt lat="43.8522" lon="5.47023">
        <ele>403</ele>
        <time>2014-10-24T09:30:23Z</time>
      </trkpt>
      <trkpt lat="43.85218" lon="5.47019">
        <ele>403.64</ele>
        <time>2014-10-24T09:30:29Z</time>
      </trkpt>
      <trkpt lat="43.85209" lon="5.46998">
        <ele>405.76</ele>
        <time>2014-10-24T09:30:51Z</time>
      </trkpt>
      <trkpt lat="43.85205" lon="5.46979">
        <ele>406.44</ele>
        <time>2014-10-24T09:31:15Z</time>
      </trkpt>
      <trkpt lat="43.85202" lon="5.46977">
        <ele>406.2</ele>
        <time>2014-10-24T09:31:44Z</time>
      </trkpt>
      <trkpt lat="43.85198" lon="5.46971">
        <ele>406.57</ele>
        <time>2014-10-24T09:32:04Z</time>
      </trkpt>
      <trkpt lat="43.85198" lon="5.46968">
        <ele>406.4</ele>
        <time>2014-10-24T09:32:29Z</time>
      </trkpt>
      <trkpt lat="43.85196" lon="5.46958">
        <ele>406.89</ele>
        <time>2014-10-24T09:32:55Z</time>
      </trkpt>
      <trkpt lat="43.85193" lon="5.46958">
        <ele>406.56</ele>
        <time>2014-10-24T09:33:28Z</time>
      </trkpt>
      <trkpt lat="43.85192" lon="5.46961">
        <ele>406.25</ele>
        <time>2014-10-24T09:33:57Z</time>
      </trkpt>
      <trkpt lat="43.85192" lon="5.46958">
        <ele>406.05</ele>
        <time>2014-10-24T09:34:36Z</time>
      </trkpt>
      <trkpt lat="43.8519" lon="5.46946">
        <ele>406.15</ele>
        <time>2014-10-24T09:34:59Z</time>
      </trkpt>
      <trkpt lat="43.85183" lon="5.4693">
        <ele>407.19</ele>
        <time>2014-10-24T09:35:22Z</time>
      </trkpt>
      <trkpt lat="43.85173" lon="5.46908">
        <ele>409.07</ele>
        <time>2014-10-24T09:35:46Z</time>
      </trkpt>
      <trkpt lat="43.85164" lon="5.46877">
        <ele>410.22</ele>
        <time>2014-10-24T09:36:10Z</time>
      </trkpt>
      <trkpt lat="43.85151" lon="5.46857">
        <ele>411.61</ele>
        <time>2014-10-24T09:36:30Z</time>
      </trkpt>
      <trkpt lat="43.85145" lon="5.46842">
        <ele>414.35</ele>
        <time>2014-10-24T09:36:53Z</time>
      </trkpt>
      <trkpt lat="43.85122" lon="5.46826">
        <ele>416.54</ele>
        <time>2014-10-24T09:37:15Z</time>
      </trkpt>
      <trkpt lat="43.85109" lon="5.46806">
        <ele>417.77</ele>
        <time>2014-10-24T09:37:38Z</time>
      </trkpt>
      <trkpt lat="43.85105" lon="5.468">
        <ele>418.03</ele>
        <time>2014-10-24T09:37:45Z</time>
      </trkpt>
      <trkpt lat="43.85099" lon="5.46795">
        <ele>418.14</ele>
        <time>2014-10-24T09:38:09Z</time>
      </trkpt>
      <trkpt lat="43.85097" lon="5.46802">
        <ele>418.12</ele>
        <time>2014-10-24T09:38:28Z</time>
      </trkpt>
      <trkpt lat="43.85092" lon="5.46822">
        <ele>417.94</ele>
        <time>2014-10-24T09:38:49Z</time>
      </trkpt>
      <trkpt lat="43.85085" lon="5.46839">
        <ele>416.92</ele>
        <time>2014-10-24T09:39:05Z</time>
      </trkpt>
      <trkpt lat="43.85071" lon="5.46857">
        <ele>415.5</ele>
        <time>2014-10-24T09:39:25Z</time>
      </trkpt>
      <trkpt lat="43.8506" lon="5.46865">
        <ele>414.74</ele>
        <time>2014-10-24T09:39:40Z</time>
      </trkpt>
      <trkpt lat="43.85036" lon="5.46871">
        <ele>415.46</ele>
        <time>2014-10-24T09:40:02Z</time>
      </trkpt>
      <trkpt lat="43.85011" lon="5.46877">
        <ele>416.12</ele>
        <time>2014-10-24T09:40:24Z</time>
      </trkpt>
      <trkpt lat="43.8499" lon="5.46886">
        <ele>416.01</ele>
        <time>2014-10-24T09:40:46Z</time>
      </trkpt>
      <trkpt lat="43.84981" lon="5.46889">
        <ele>415.68</ele>
        <time>2014-10-24T09:41:04Z</time>
      </trkpt>
      <trkpt lat="43.84973" lon="5.46879">
        <ele>416.05</ele>
        <time>2014-10-24T09:41:23Z</time>
      </trkpt>
      <trkpt lat="43.84968" lon="5.4686">
        <ele>418.99</ele>
        <time>2014-10-24T09:41:47Z</time>
      </trkpt>
      <trkpt lat="43.84964" lon="5.46841">
        <ele>422.03</ele>
        <time>2014-10-24T09:42:10Z</time>
      </trkpt>
      <trkpt lat="43.84957" lon="5.46816">
        <ele>423.54</ele>
        <time>2014-10-24T09:42:31Z</time>
      </trkpt>
      <trkpt lat="43.8495" lon="5.46783">
        <ele>424.77</ele>
        <time>2014-10-24T09:42:54Z</time>
      </trkpt>
      <trkpt lat="43.84944" lon="5.46749">
        <ele>425.13</ele>
        <time>2014-10-24T09:43:21Z</time>
      </trkpt>
      <trkpt lat="43.84944" lon="5.46721">
        <ele>425.91</ele>
        <time>2014-10-24T09:43:45Z</time>
      </trkpt>
      <trkpt lat="43.84945" lon="5.46688">
        <ele>427.06</ele>
        <time>2014-10-24T09:44:11Z</time>
      </trkpt>
      <trkpt lat="43.8495" lon="5.46659">
        <ele>428.95</ele>
        <time>2014-10-24T09:44:36Z</time>
      </trkpt>
      <trkpt lat="43.84959" lon="5.46641">
        <ele>430.77</ele>
        <time>2014-10-24T09:44:59Z</time>
      </trkpt>
      <trkpt lat="43.84959" lon="5.46617">
        <ele>431.78</ele>
        <time>2014-10-24T09:45:20Z</time>
      </trkpt>
      <trkpt lat="43.84949" lon="5.46591">
        <ele>432.71</ele>
        <time>2014-10-24T09:45:43Z</time>
      </trkpt>
      <trkpt lat="43.8494" lon="5.4657">
        <ele>433.74</ele>
        <time>2014-10-24T09:46:01Z</time>
      </trkpt>
      <trkpt lat="43.8493" lon="5.46548">
        <ele>434.7</ele>
        <time>2014-10-24T09:46:22Z</time>
      </trkpt>
      <trkpt lat="43.84923" lon="5.46521">
        <ele>435.65</ele>
        <time>2014-10-24T09:46:45Z</time>
      </trkpt>
      <trkpt lat="43.84913" lon="5.46503">
        <ele>435.64</ele>
        <time>2014-10-24T09:47:07Z</time>
      </trkpt>
      <trkpt lat="43.84908" lon="5.46494">
        <ele>436.2</ele>
        <time>2014-10-24T09:47:18Z</time>
      </trkpt>
      <trkpt lat="43.84906" lon="5.46485">
        <ele>436.56</ele>
        <time>2014-10-24T09:47:32Z</time>
      </trkpt>
      <trkpt lat="43.84898" lon="5.46474">
        <ele>437.5</ele>
        <time>2014-10-24T09:47:54Z</time>
      </trkpt>
      <trkpt lat="43.84892" lon="5.4646">
        <ele>437.91</ele>
        <time>2014-10-24T09:48:12Z</time>
      </trkpt>
      <trkpt lat="43.84892" lon="5.46454">
        <ele>437.88</ele>
        <time>2014-10-24T09:48:34Z</time>
      </trkpt>
      <trkpt lat="43.84886" lon="5.46442">
        <ele>437.65</ele>
        <time>2014-10-24T09:48:55Z</time>
      </trkpt>
      <trkpt lat="43.84883" lon="5.46421">
        <ele>438.22</ele>
        <time>2014-10-24T09:49:17Z</time>
      </trkpt>
      <trkpt lat="43.84885" lon="5.46399">
        <ele>438.35</ele>
        <time>2014-10-24T09:49:38Z</time>
      </trkpt>
      <trkpt lat="43.84889" lon="5.4637">
        <ele>439.21</ele>
        <time>2014-10-24T09:50:01Z</time>
      </trkpt>
      <trkpt lat="43.84896" lon="5.46351">
        <ele>441.27</ele>
        <time>2014-10-24T09:50:22Z</time>
      </trkpt>
      <trkpt lat="43.84902" lon="5.4633">
        <ele>441.25</ele>
        <time>2014-10-24T09:50:39Z</time>
      </trkpt>
      <trkpt lat="43.8491" lon="5.46298">
        <ele>440.96</ele>
        <time>2014-10-24T09:51:03Z</time>
      </trkpt>
      <trkpt lat="43.84915" lon="5.46275">
        <ele>442.62</ele>
        <time>2014-10-24T09:51:21Z</time>
      </trkpt>
      <trkpt lat="43.84921" lon="5.46254">
        <ele>445.69</ele>
        <time>2014-10-24T09:51:42Z</time>
      </trkpt>
      <trkpt lat="43.84932" lon="5.46245">
        <ele>448.81</ele>
        <time>2014-10-24T09:52:02Z</time>
      </trkpt>
      <trkpt lat="43.84951" lon="5.46237">
        <ele>450.74</ele>
        <time>2014-10-24T09:52:24Z</time>
      </trkpt>
      <trkpt lat="43.84961" lon="5.46241">
        <ele>451.62</ele>
        <time>2014-10-24T09:52:39Z</time>
      </trkpt>
      <trkpt lat="43.84978" lon="5.46237">
        <ele>453.25</ele>
        <time>2014-10-24T09:53:00Z</time>
      </trkpt>
      <trkpt lat="43.84997" lon="5.46227">
        <ele>455.58</ele>
        <time>2014-10-24T09:53:24Z</time>
      </trkpt>
      <trkpt lat="43.85003" lon="5.46194">
        <ele>457.72</ele>
        <time>2014-10-24T09:53:51Z</time>
      </trkpt>
      <trkpt lat="43.84998" lon="5.46176">
        <ele>459.07</ele>
        <time>2014-10-24T09:54:11Z</time>
      </trkpt>
      <trkpt lat="43.84991" lon="5.46164">
        <ele>460.51</ele>
        <time>2014-10-24T09:54:31Z</time>
      </trkpt>
      <trkpt lat="43.84988" lon="5.46152">
        <ele>462.29</ele>
        <time>2014-10-24T09:54:52Z</time>
      </trkpt>
      <trkpt lat="43.84989" lon="5.46146">
        <ele>462.87</ele>
        <time>2014-10-24T09:55:01Z</time>
      </trkpt>
      <trkpt lat="43.84994" lon="5.4612">
        <ele>464.4</ele>
        <time>2014-10-24T09:55:24Z</time>
      </trkpt>
      <trkpt lat="43.84999" lon="5.46107">
        <ele>464.92</ele>
        <time>2014-10-24T09:55:37Z</time>
      </trkpt>
      <trkpt lat="43.85005" lon="5.46069">
        <ele>466.58</ele>
        <time>2014-10-24T09:55:56Z</time>
      </trkpt>
      <trkpt lat="43.85003" lon="5.46041">
        <ele>467.74</ele>
        <time>2014-10-24T09:56:15Z</time>
      </trkpt>
      <trkpt lat="43.8499" lon="5.46019">
        <ele>469.06</ele>
        <time>2014-10-24T09:56:36Z</time>
      </trkpt>
      <trkpt lat="43.8498" lon="5.46001">
        <ele>470.17</ele>
        <time>2014-10-24T09:56:54Z</time>
      </trkpt>
      <trkpt lat="43.84971" lon="5.45984">
        <ele>471.37</ele>
        <time>2014-10-24T09:57:16Z</time>
      </trkpt>
      <trkpt lat="43.84965" lon="5.45971">
        <ele>472.84</ele>
        <time>2014-10-24T09:57:33Z</time>
      </trkpt>
      <trkpt lat="43.84962" lon="5.45955">
        <ele>474.62</ele>
        <time>2014-10-24T09:57:52Z</time>
      </trkpt>
      <trkpt lat="43.84964" lon="5.45944">
        <ele>475.67</ele>
        <time>2014-10-24T09:58:06Z</time>
      </trkpt>
      <trkpt lat="43.84965" lon="5.45937">
        <ele>475.97</ele>
        <time>2014-10-24T09:58:13Z</time>
      </trkpt>
      <trkpt lat="43.84973" lon="5.45919">
        <ele>476.99</ele>
        <time>2014-10-24T09:58:31Z</time>
      </trkpt>
      <trkpt lat="43.84984" lon="5.45888">
        <ele>478.5</ele>
        <time>2014-10-24T09:58:54Z</time>
      </trkpt>
      <trkpt lat="43.84992" lon="5.45863">
        <ele>480</ele>
        <time>2014-10-24T09:59:14Z</time>
      </trkpt>
      <trkpt lat="43.84994" lon="5.45842">
        <ele>480.88</ele>
        <time>2014-10-24T09:59:33Z</time>
      </trkpt>
      <trkpt lat="43.85004" lon="5.45819">
        <ele>481.63</ele>
        <time>2014-10-24T09:59:56Z</time>
      </trkpt>
      <trkpt lat="43.8501" lon="5.45788">
        <ele>482.29</ele>
        <time>2014-10-24T10:00:17Z</time>
      </trkpt>
      <trkpt lat="43.85011" lon="5.45783">
        <ele>482.33</ele>
        <time>2014-10-24T10:00:20Z</time>
      </trkpt>
      <trkpt lat="43.85015" lon="5.4577">
        <ele>482.59</ele>
        <time>2014-10-24T10:00:42Z</time>
      </trkpt>
      <trkpt lat="43.85018" lon="5.45768">
        <ele>482.58</ele>
        <time>2014-10-24T10:00:48Z</time>
      </trkpt>
      <trkpt lat="43.85024" lon="5.45763">
        <ele>482.77</ele>
        <time>2014-10-24T10:01:17Z</time>
      </trkpt>
      <trkpt lat="43.85027" lon="5.45764">
        <ele>482.66</ele>
        <time>2014-10-24T10:01:53Z</time>
      </trkpt>
      <trkpt lat="43.85023" lon="5.45761">
        <ele>482.55</ele>
        <time>2014-10-24T10:02:27Z</time>
      </trkpt>
      <trkpt lat="43.85014" lon="5.45751">
        <ele>482.96</ele>
        <time>2014-10-24T10:02:48Z</time>
      </trkpt>
      <trkpt lat="43.8501" lon="5.45739">
        <ele>483.63</ele>
        <time>2014-10-24T10:03:08Z</time>
      </trkpt>
      <trkpt lat="43.85008" lon="5.45709">
        <ele>484.59</ele>
        <time>2014-10-24T10:03:29Z</time>
      </trkpt>
      <trkpt lat="43.85004" lon="5.45691">
        <ele>485.13</ele>
        <time>2014-10-24T10:03:45Z</time>
      </trkpt>
      <trkpt lat="43.84989" lon="5.45671">
        <ele>486.17</ele>
        <time>2014-10-24T10:04:06Z</time>
      </trkpt>
      <trkpt lat="43.84976" lon="5.4566">
        <ele>486.9</ele>
        <time>2014-10-24T10:04:25Z</time>
      </trkpt>
      <trkpt lat="43.84967" lon="5.45653">
        <ele>487.27</ele>
        <time>2014-10-24T10:04:49Z</time>
      </trkpt>
      <trkpt lat="43.84958" lon="5.45644">
        <ele>487.75</ele>
        <time>2014-10-24T10:05:07Z</time>
      </trkpt>
      <trkpt lat="43.84946" lon="5.45631">
        <ele>488.33</ele>
        <time>2014-10-24T10:05:23Z</time>
      </trkpt>
      <trkpt lat="43.84935" lon="5.45617">
        <ele>489.18</ele>
        <time>2014-10-24T10:05:37Z</time>
      </trkpt>
      <trkpt lat="43.8492" lon="5.45613">
        <ele>490.01</ele>
        <time>2014-10-24T10:05:56Z</time>
      </trkpt>
      <trkpt lat="43.84907" lon="5.45613">
        <ele>490.66</ele>
        <time>2014-10-24T10:06:14Z</time>
      </trkpt>
      <trkpt lat="43.84896" lon="5.45614">
        <ele>491.07</ele>
        <time>2014-10-24T10:06:28Z</time>
      </trkpt>
      <trkpt lat="43.84894" lon="5.45614">
        <ele>491.14</ele>
        <time>2014-10-24T10:06:30Z</time>
      </trkpt>
      <trkpt lat="43.84866" lon="5.45616">
        <ele>492.1</ele>
        <time>2014-10-24T10:06:56Z</time>
      </trkpt>
      <trkpt lat="43.8484" lon="5.4562">
        <ele>492.72</ele>
        <time>2014-10-24T10:07:21Z</time>
      </trkpt>
      <trkpt lat="43.84822" lon="5.45615">
        <ele>493.55</ele>
        <time>2014-10-24T10:07:42Z</time>
      </trkpt>
      <trkpt lat="43.84806" lon="5.45611">
        <ele>493.61</ele>
        <time>2014-10-24T10:08:01Z</time>
      </trkpt>
      <trkpt lat="43.84791" lon="5.45605">
        <ele>493.87</ele>
        <time>2014-10-24T10:08:17Z</time>
      </trkpt>
      <trkpt lat="43.84776" lon="5.456">
        <ele>493.28</ele>
        <time>2014-10-24T10:08:35Z</time>
      </trkpt>
      <trkpt lat="43.84758" lon="5.45586">
        <ele>493.43</ele>
        <time>2014-10-24T10:08:56Z</time>
      </trkpt>
      <trkpt lat="43.84757" lon="5.45585">
        <ele>493.44</ele>
        <time>2014-10-24T10:08:57Z</time>
      </trkpt>
      <trkpt lat="43.84746" lon="5.4557">
        <ele>493.5</ele>
        <time>2014-10-24T10:09:15Z</time>
      </trkpt>
      <trkpt lat="43.84741" lon="5.45561">
        <ele>493.5</ele>
        <time>2014-10-24T10:09:23Z</time>
      </trkpt>
      <trkpt lat="43.8473" lon="5.45541">
        <ele>494.59</ele>
        <time>2014-10-24T10:09:40Z</time>
      </trkpt>
      <trkpt lat="43.8473" lon="5.45518">
        <ele>496.17</ele>
        <time>2014-10-24T10:10:00Z</time>
      </trkpt>
      <trkpt lat="43.84734" lon="5.45492">
        <ele>497.91</ele>
        <time>2014-10-24T10:10:20Z</time>
      </trkpt>
      <trkpt lat="43.84734" lon="5.45479">
        <ele>498.59</ele>
        <time>2014-10-24T10:10:42Z</time>
      </trkpt>
      <trkpt lat="43.84734" lon="5.45478">
        <ele>498.65</ele>
        <time>2014-10-24T10:11:07Z</time>
      </trkpt>
      <trkpt lat="43.84733" lon="5.45478">
        <ele>498.48</ele>
        <time>2014-10-24T10:11:34Z</time>
      </trkpt>
      <trkpt lat="43.84735" lon="5.45478">
        <ele>498.32</ele>
        <time>2014-10-24T10:12:01Z</time>
      </trkpt>
      <trkpt lat="43.84736" lon="5.45483">
        <ele>498.16</ele>
        <time>2014-10-24T10:12:27Z</time>
      </trkpt>
      <trkpt lat="43.84735" lon="5.45484">
        <ele>498.01</ele>
        <time>2014-10-24T10:12:53Z</time>
      </trkpt>
      <trkpt lat="43.84735" lon="5.45485">
        <ele>497.69</ele>
        <time>2014-10-24T10:13:12Z</time>
      </trkpt>
      <trkpt lat="43.84727" lon="5.45486">
        <ele>497.45</ele>
        <time>2014-10-24T10:13:46Z</time>
      </trkpt>
      <trkpt lat="43.84713" lon="5.45491">
        <ele>497.55</ele>
        <time>2014-10-24T10:14:05Z</time>
      </trkpt>
      <trkpt lat="43.84707" lon="5.45495">
        <ele>497.73</ele>
        <time>2014-10-24T10:14:12Z</time>
      </trkpt>
      <trkpt lat="43.84705" lon="5.45495">
        <ele>497.74</ele>
        <time>2014-10-24T10:14:14Z</time>
      </trkpt>
      <trkpt lat="43.84702" lon="5.45495">
        <ele>497.73</ele>
        <time>2014-10-24T10:14:17Z</time>
      </trkpt>
      <trkpt lat="43.84679" lon="5.45509">
        <ele>497.21</ele>
        <time>2014-10-24T10:14:42Z</time>
      </trkpt>
      <trkpt lat="43.84663" lon="5.45528">
        <ele>496.82</ele>
        <time>2014-10-24T10:15:06Z</time>
      </trkpt>
      <trkpt lat="43.84657" lon="5.45544">
        <ele>496.85</ele>
        <time>2014-10-24T10:15:22Z</time>
      </trkpt>
      <trkpt lat="43.84649" lon="5.45561">
        <ele>496.6</ele>
        <time>2014-10-24T10:15:42Z</time>
      </trkpt>
      <trkpt lat="43.84641" lon="5.45574">
        <ele>498.37</ele>
        <time>2014-10-24T10:16:02Z</time>
      </trkpt>
      <trkpt lat="43.84632" lon="5.45584">
        <ele>500.04</ele>
        <time>2014-10-24T10:16:18Z</time>
      </trkpt>
      <trkpt lat="43.84618" lon="5.45603">
        <ele>501.82</ele>
        <time>2014-10-24T10:16:39Z</time>
      </trkpt>
      <trkpt lat="43.84611" lon="5.45614">
        <ele>503.51</ele>
        <time>2014-10-24T10:16:56Z</time>
      </trkpt>
      <trkpt lat="43.846" lon="5.45627">
        <ele>506.51</ele>
        <time>2014-10-24T10:17:18Z</time>
      </trkpt>
      <trkpt lat="43.84591" lon="5.45638">
        <ele>508.16</ele>
        <time>2014-10-24T10:17:35Z</time>
      </trkpt>
      <trkpt lat="43.8458" lon="5.45649">
        <ele>509.74</ele>
        <time>2014-10-24T10:17:53Z</time>
      </trkpt>
      <trkpt lat="43.84566" lon="5.45654">
        <ele>511.93</ele>
        <time>2014-10-24T10:18:12Z</time>
      </trkpt>
      <trkpt lat="43.84556" lon="5.45658">
        <ele>513.67</ele>
        <time>2014-10-24T10:18:31Z</time>
      </trkpt>
      <trkpt lat="43.84545" lon="5.45661">
        <ele>515.5</ele>
        <time>2014-10-24T10:18:46Z</time>
      </trkpt>
      <trkpt lat="43.84536" lon="5.45662">
        <ele>518.29</ele>
        <time>2014-10-24T10:19:09Z</time>
      </trkpt>
      <trkpt lat="43.84528" lon="5.4566">
        <ele>520.94</ele>
        <time>2014-10-24T10:19:29Z</time>
      </trkpt>
      <trkpt lat="43.84526" lon="5.45659">
        <ele>521.82</ele>
        <time>2014-10-24T10:19:46Z</time>
      </trkpt>
      <trkpt lat="43.84523" lon="5.45656">
        <ele>521.96</ele>
        <time>2014-10-24T10:20:13Z</time>
      </trkpt>
      <trkpt lat="43.8452" lon="5.45653">
        <ele>521.42</ele>
        <time>2014-10-24T10:20:43Z</time>
      </trkpt>
      <trkpt lat="43.84517" lon="5.45654">
        <ele>521.94</ele>
        <time>2014-10-24T10:20:59Z</time>
      </trkpt>
      <trkpt lat="43.84514" lon="5.45654">
        <ele>523.5</ele>
        <time>2014-10-24T10:21:17Z</time>
      </trkpt>
      <trkpt lat="43.84508" lon="5.45648">
        <ele>526.53</ele>
        <time>2014-10-24T10:21:42Z</time>
      </trkpt>
      <trkpt lat="43.84506" lon="5.45647">
        <ele>527.41</ele>
        <time>2014-10-24T10:22:06Z</time>
      </trkpt>
      <trkpt lat="43.84504" lon="5.45649">
        <ele>526.88</ele>
        <time>2014-10-24T10:22:43Z</time>
      </trkpt>
      <trkpt lat="43.84503" lon="5.45649">
        <ele>526.87</ele>
        <time>2014-10-24T10:23:14Z</time>
      </trkpt>
      <trkpt lat="43.845" lon="5.45647">
        <ele>528.65</ele>
        <time>2014-10-24T10:23:38Z</time>
      </trkpt>
      <trkpt lat="43.845" lon="5.45638">
        <ele>530.4</ele>
        <time>2014-10-24T10:23:56Z</time>
      </trkpt>
      <trkpt lat="43.84499" lon="5.45631">
        <ele>533.06</ele>
        <time>2014-10-24T10:24:15Z</time>
      </trkpt>
      <trkpt lat="43.84494" lon="5.45628">
        <ele>533.86</ele>
        <time>2014-10-24T10:24:30Z</time>
      </trkpt>
      <trkpt lat="43.84493" lon="5.45627">
        <ele>534.54</ele>
        <time>2014-10-24T10:24:54Z</time>
      </trkpt>
      <trkpt lat="43.84491" lon="5.45625">
        <ele>535.38</ele>
        <time>2014-10-24T10:25:19Z</time>
      </trkpt>
      <trkpt lat="43.84495" lon="5.45619">
        <ele>535.6</ele>
        <time>2014-10-24T10:25:42Z</time>
      </trkpt>
      <trkpt lat="43.84497" lon="5.45613">
        <ele>535.31</ele>
        <time>2014-10-24T10:26:05Z</time>
      </trkpt>
      <trkpt lat="43.84499" lon="5.45609">
        <ele>535.3</ele>
        <time>2014-10-24T10:26:26Z</time>
      </trkpt>
      <trkpt lat="43.84499" lon="5.45604">
        <ele>535.94</ele>
        <time>2014-10-24T10:26:47Z</time>
      </trkpt>
      <trkpt lat="43.84502" lon="5.45597">
        <ele>537.25</ele>
        <time>2014-10-24T10:27:10Z</time>
      </trkpt>
      <trkpt lat="43.84503" lon="5.45595">
        <ele>537.71</ele>
        <time>2014-10-24T10:27:38Z</time>
      </trkpt>
      <trkpt lat="43.845" lon="5.4559">
        <ele>538.66</ele>
        <time>2014-10-24T10:27:56Z</time>
      </trkpt>
      <trkpt lat="43.84498" lon="5.45586">
        <ele>539.9</ele>
        <time>2014-10-24T10:28:15Z</time>
      </trkpt>
      <trkpt lat="43.84496" lon="5.45583">
        <ele>541.5</ele>
        <time>2014-10-24T10:28:35Z</time>
      </trkpt>
      <trkpt lat="43.84495" lon="5.45584">
        <ele>541.93</ele>
        <time>2014-10-24T10:28:56Z</time>
      </trkpt>
      <trkpt lat="43.84494" lon="5.45584">
        <ele>541.33</ele>
        <time>2014-10-24T10:29:23Z</time>
      </trkpt>
      <trkpt lat="43.84496" lon="5.45585">
        <ele>541.28</ele>
        <time>2014-10-24T10:29:52Z</time>
      </trkpt>
      <trkpt lat="43.84495" lon="5.45585">
        <ele>541.05</ele>
        <time>2014-10-24T10:30:13Z</time>
      </trkpt>
      <trkpt lat="43.84493" lon="5.45584">
        <ele>541.05</ele>
        <time>2014-10-24T10:30:36Z</time>
      </trkpt>
      <trkpt lat="43.8449" lon="5.45585">
        <ele>541.44</ele>
        <time>2014-10-24T10:30:55Z</time>
      </trkpt>
      <trkpt lat="43.84491" lon="5.45585">
        <ele>542.82</ele>
        <time>2014-10-24T10:31:13Z</time>
      </trkpt>
      <trkpt lat="43.84489" lon="5.45583">
        <ele>543.54</ele>
        <time>2014-10-24T10:31:30Z</time>
      </trkpt>
      <trkpt lat="43.84489" lon="5.45582">
        <ele>544.49</ele>
        <time>2014-10-24T10:31:51Z</time>
      </trkpt>
      <trkpt lat="43.84483" lon="5.45582">
        <ele>545.43</ele>
        <time>2014-10-24T10:32:14Z</time>
      </trkpt>
      <trkpt lat="43.8448" lon="5.45582">
        <ele>547.01</ele>
        <time>2014-10-24T10:32:30Z</time>
      </trkpt>
      <trkpt lat="43.84478" lon="5.45582">
        <ele>549</ele>
        <time>2014-10-24T10:32:49Z</time>
      </trkpt>
      <trkpt lat="43.84475" lon="5.45582">
        <ele>549.49</ele>
        <time>2014-10-24T10:33:12Z</time>
      </trkpt>
      <trkpt lat="43.84473" lon="5.45581">
        <ele>549.37</ele>
        <time>2014-10-24T10:33:38Z</time>
      </trkpt>
      <trkpt lat="43.84471" lon="5.4558">
        <ele>549.09</ele>
        <time>2014-10-24T10:34:23Z</time>
      </trkpt>
      <trkpt lat="43.84472" lon="5.45579">
        <ele>549.21</ele>
        <time>2014-10-24T10:34:54Z</time>
      </trkpt>
      <trkpt lat="43.84473" lon="5.45581">
        <ele>549.31</ele>
        <time>2014-10-24T10:35:20Z</time>
      </trkpt>
      <trkpt lat="43.8447" lon="5.45583">
        <ele>549.63</ele>
        <time>2014-10-24T10:35:45Z</time>
      </trkpt>
      <trkpt lat="43.84467" lon="5.45583">
        <ele>550.35</ele>
        <time>2014-10-24T10:36:03Z</time>
      </trkpt>
      <trkpt lat="43.84462" lon="5.45582">
        <ele>551.91</ele>
        <time>2014-10-24T10:36:21Z</time>
      </trkpt>
      <trkpt lat="43.84459" lon="5.4558">
        <ele>553.83</ele>
        <time>2014-10-24T10:36:38Z</time>
      </trkpt>
      <trkpt lat="43.84457" lon="5.45578">
        <ele>555.36</ele>
        <time>2014-10-24T10:36:58Z</time>
      </trkpt>
      <trkpt lat="43.84453" lon="5.4558">
        <ele>556.22</ele>
        <time>2014-10-24T10:37:14Z</time>
      </trkpt>
      <trkpt lat="43.84449" lon="5.45578">
        <ele>558.26</ele>
        <time>2014-10-24T10:37:36Z</time>
      </trkpt>
      <trkpt lat="43.84443" lon="5.45578">
        <ele>559.17</ele>
        <time>2014-10-24T10:37:50Z</time>
      </trkpt>
      <trkpt lat="43.84436" lon="5.4557">
        <ele>562.01</ele>
        <time>2014-10-24T10:38:15Z</time>
      </trkpt>
      <trkpt lat="43.84434" lon="5.4556">
        <ele>564.18</ele>
        <time>2014-10-24T10:38:41Z</time>
      </trkpt>
      <trkpt lat="43.84431" lon="5.45553">
        <ele>566.12</ele>
        <time>2014-10-24T10:39:06Z</time>
      </trkpt>
      <trkpt lat="43.84428" lon="5.45546">
        <ele>566.94</ele>
        <time>2014-10-24T10:39:30Z</time>
      </trkpt>
      <trkpt lat="43.84426" lon="5.45537">
        <ele>569.47</ele>
        <time>2014-10-24T10:39:47Z</time>
      </trkpt>
      <trkpt lat="43.84423" lon="5.45529">
        <ele>571.01</ele>
        <time>2014-10-24T10:40:07Z</time>
      </trkpt>
      <trkpt lat="43.84421" lon="5.45525">
        <ele>572.51</ele>
        <time>2014-10-24T10:40:25Z</time>
      </trkpt>
      <trkpt lat="43.84419" lon="5.45524">
        <ele>573.16</ele>
        <time>2014-10-24T10:40:45Z</time>
      </trkpt>
      <trkpt lat="43.84418" lon="5.45519">
        <ele>574.05</ele>
        <time>2014-10-24T10:41:10Z</time>
      </trkpt>
      <trkpt lat="43.84415" lon="5.45515">
        <ele>575.82</ele>
        <time>2014-10-24T10:41:30Z</time>
      </trkpt>
      <trkpt lat="43.84411" lon="5.45512">
        <ele>577.15</ele>
        <time>2014-10-24T10:41:46Z</time>
      </trkpt>
      <trkpt lat="43.84406" lon="5.45513">
        <ele>578.68</ele>
        <time>2014-10-24T10:42:03Z</time>
      </trkpt>
      <trkpt lat="43.84404" lon="5.45512">
        <ele>579.68</ele>
        <time>2014-10-24T10:42:21Z</time>
      </trkpt>
      <trkpt lat="43.84403" lon="5.4551">
        <ele>579.99</ele>
        <time>2014-10-24T10:42:43Z</time>
      </trkpt>
      <trkpt lat="43.84401" lon="5.45509">
        <ele>580</ele>
        <time>2014-10-24T10:43:14Z</time>
      </trkpt>
      <trkpt lat="43.84398" lon="5.45513">
        <ele>580.4</ele>
        <time>2014-10-24T10:43:34Z</time>
      </trkpt>
      <trkpt lat="43.84396" lon="5.45514">
        <ele>581.33</ele>
        <time>2014-10-24T10:43:53Z</time>
      </trkpt>
      <trkpt lat="43.84392" lon="5.45512">
        <ele>582.16</ele>
        <time>2014-10-24T10:44:11Z</time>
      </trkpt>
      <trkpt lat="43.84389" lon="5.45509">
        <ele>583.78</ele>
        <time>2014-10-24T10:44:33Z</time>
      </trkpt>
      <trkpt lat="43.84386" lon="5.45505">
        <ele>584.29</ele>
        <time>2014-10-24T10:44:57Z</time>
      </trkpt>
      <trkpt lat="43.84383" lon="5.45506">
        <ele>584.58</ele>
        <time>2014-10-24T10:45:16Z</time>
      </trkpt>
      <trkpt lat="43.84377" lon="5.45507">
        <ele>585.24</ele>
        <time>2014-10-24T10:45:39Z</time>
      </trkpt>
      <trkpt lat="43.84374" lon="5.45505">
        <ele>585.93</ele>
        <time>2014-10-24T10:45:57Z</time>
      </trkpt>
      <trkpt lat="43.84368" lon="5.455">
        <ele>587.47</ele>
        <time>2014-10-24T10:46:20Z</time>
      </trkpt>
      <trkpt lat="43.84365" lon="5.45497">
        <ele>589.21</ele>
        <time>2014-10-24T10:46:43Z</time>
      </trkpt>
      <trkpt lat="43.84356" lon="5.45493">
        <ele>590.41</ele>
        <time>2014-10-24T10:47:04Z</time>
      </trkpt>
      <trkpt lat="43.84349" lon="5.45485">
        <ele>592.06</ele>
        <time>2014-10-24T10:47:27Z</time>
      </trkpt>
      <trkpt lat="43.84341" lon="5.45476">
        <ele>594.16</ele>
        <time>2014-10-24T10:47:54Z</time>
      </trkpt>
      <trkpt lat="43.84336" lon="5.4547">
        <ele>595.68</ele>
        <time>2014-10-24T10:48:15Z</time>
      </trkpt>
      <trkpt lat="43.84331" lon="5.45465">
        <ele>596.32</ele>
        <time>2014-10-24T10:48:36Z</time>
      </trkpt>
      <trkpt lat="43.84323" lon="5.45463">
        <ele>597.43</ele>
        <time>2014-10-24T10:48:54Z</time>
      </trkpt>
      <trkpt lat="43.84316" lon="5.45463">
        <ele>598.23</ele>
        <time>2014-10-24T10:49:11Z</time>
      </trkpt>
      <trkpt lat="43.84313" lon="5.45465">
        <ele>598.29</ele>
        <time>2014-10-24T10:49:29Z</time>
      </trkpt>
      <trkpt lat="43.8431" lon="5.45466">
        <ele>598.42</ele>
        <time>2014-10-24T10:49:45Z</time>
      </trkpt>
      <trkpt lat="43.84309" lon="5.45458">
        <ele>598.69</ele>
        <time>2014-10-24T10:50:00Z</time>
      </trkpt>
      <trkpt lat="43.84306" lon="5.45448">
        <ele>600.18</ele>
        <time>2014-10-24T10:50:20Z</time>
      </trkpt>
      <trkpt lat="43.84298" lon="5.45442">
        <ele>601.32</ele>
        <time>2014-10-24T10:50:38Z</time>
      </trkpt>
      <trkpt lat="43.84296" lon="5.45428">
        <ele>603.52</ele>
        <time>2014-10-24T10:51:00Z</time>
      </trkpt>
      <trkpt lat="43.84288" lon="5.45432">
        <ele>604.74</ele>
        <time>2014-10-24T10:51:18Z</time>
      </trkpt>
      <trkpt lat="43.84279" lon="5.45457">
        <ele>603.8</ele>
        <time>2014-10-24T10:51:44Z</time>
      </trkpt>
      <trkpt lat="43.84272" lon="5.45481">
        <ele>603.1</ele>
        <time>2014-10-24T10:52:07Z</time>
      </trkpt>
      <trkpt lat="43.8427" lon="5.45488">
        <ele>603.11</ele>
        <time>2014-10-24T10:52:12Z</time>
      </trkpt>
      <trkpt lat="43.84261" lon="5.45523">
        <ele>602.32</ele>
        <time>2014-10-24T10:52:36Z</time>
      </trkpt>
      <trkpt lat="43.84256" lon="5.45552">
        <ele>601.28</ele>
        <time>2014-10-24T10:52:57Z</time>
      </trkpt>
      <trkpt lat="43.84276" lon="5.45563">
        <ele>598.34</ele>
        <time>2014-10-24T10:53:20Z</time>
      </trkpt>
      <trkpt lat="43.84289" lon="5.45566">
        <ele>596.14</ele>
        <time>2014-10-24T10:53:40Z</time>
      </trkpt>
      <trkpt lat="43.84295" lon="5.45563">
        <ele>595.41</ele>
        <time>2014-10-24T10:53:57Z</time>
      </trkpt>
      <trkpt lat="43.84297" lon="5.45559">
        <ele>595.32</ele>
        <time>2014-10-24T10:54:16Z</time>
      </trkpt>
      <trkpt lat="43.84299" lon="5.45558">
        <ele>594.67</ele>
        <time>2014-10-24T10:54:55Z</time>
      </trkpt>
      <trkpt lat="43.84299" lon="5.45556">
        <ele>594.89</ele>
        <time>2014-10-24T10:55:45Z</time>
      </trkpt>
      <trkpt lat="43.843" lon="5.45556">
        <ele>594.67</ele>
        <time>2014-10-24T10:57:05Z</time>
      </trkpt>
      <trkpt lat="43.84298" lon="5.45555">
        <ele>594.43</ele>
        <time>2014-10-24T11:00:16Z</time>
      </trkpt>
      <trkpt lat="43.84298" lon="5.45556">
        <ele>594.44</ele>
        <time>2014-10-24T11:02:35Z</time>
      </trkpt>
      <trkpt lat="43.84298" lon="5.45556">
        <ele>594.48</ele>
        <time>2014-10-24T11:04:21Z</time>
      </trkpt>
      <trkpt lat="43.84298" lon="5.45555">
        <ele>594.82</ele>
        <time>2014-10-24T11:05:25Z</time>
      </trkpt>
      <trkpt lat="43.843" lon="5.45554">
        <ele>594.46</ele>
        <time>2014-10-24T11:06:36Z</time>
      </trkpt>
      <trkpt lat="43.84301" lon="5.45555">
        <ele>594.27</ele>
        <time>2014-10-24T11:08:09Z</time>
      </trkpt>
      <trkpt lat="43.843" lon="5.45556">
        <ele>594.4</ele>
        <time>2014-10-24T11:10:04Z</time>
      </trkpt>
      <trkpt lat="43.84301" lon="5.45556">
        <ele>594.15</ele>
        <time>2014-10-24T11:11:33Z</time>
      </trkpt>
      <trkpt lat="43.84303" lon="5.45554">
        <ele>594.39</ele>
        <time>2014-10-24T11:13:22Z</time>
      </trkpt>
      <trkpt lat="43.84302" lon="5.45554">
        <ele>594.73</ele>
        <time>2014-10-24T11:13:56Z</time>
      </trkpt>
      <trkpt lat="43.84303" lon="5.45554">
        <ele>594.72</ele>
        <time>2014-10-24T11:14:39Z</time>
      </trkpt>
      <trkpt lat="43.84302" lon="5.45554">
        <ele>594.95</ele>
        <time>2014-10-24T11:15:46Z</time>
      </trkpt>
      <trkpt lat="43.84302" lon="5.45555">
        <ele>595.16</ele>
        <time>2014-10-24T11:17:11Z</time>
      </trkpt>
      <trkpt lat="43.84303" lon="5.45557">
        <ele>595.48</ele>
        <time>2014-10-24T11:20:04Z</time>
      </trkpt>
      <trkpt lat="43.84301" lon="5.45554">
        <ele>595.63</ele>
        <time>2014-10-24T11:25:54Z</time>
      </trkpt>
      <trkpt lat="43.84301" lon="5.45554">
        <ele>596.46</ele>
        <time>2014-10-24T11:29:03Z</time>
      </trkpt>
      <trkpt lat="43.84302" lon="5.45555">
        <ele>596.61</ele>
        <time>2014-10-24T11:32:21Z</time>
      </trkpt>
      <trkpt lat="43.84301" lon="5.45555">
        <ele>596.45</ele>
        <time>2014-10-24T11:33:36Z</time>
      </trkpt>
      <trkpt lat="43.843" lon="5.45555">
        <ele>596.94</ele>
        <time>2014-10-24T11:34:48Z</time>
      </trkpt>
      <trkpt lat="43.843" lon="5.45557">
        <ele>597.19</ele>
        <time>2014-10-24T11:35:18Z</time>
      </trkpt>
      <trkpt lat="43.84301" lon="5.45557">
        <ele>597.35</ele>
        <time>2014-10-24T11:35:45Z</time>
      </trkpt>
      <trkpt lat="43.84299" lon="5.45558">
        <ele>597.46</ele>
        <time>2014-10-24T11:36:12Z</time>
      </trkpt>
      <trkpt lat="43.843" lon="5.45557">
        <ele>597.62</ele>
        <time>2014-10-24T11:36:43Z</time>
      </trkpt>
      <trkpt lat="43.84299" lon="5.45557">
        <ele>597.44</ele>
        <time>2014-10-24T11:37:16Z</time>
      </trkpt>
      <trkpt lat="43.84301" lon="5.45557">
        <ele>597.64</ele>
        <time>2014-10-24T11:38:17Z</time>
      </trkpt>
      <trkpt lat="43.84302" lon="5.45557">
        <ele>598.11</ele>
        <time>2014-10-24T11:39:34Z</time>
      </trkpt>
      <trkpt lat="43.84302" lon="5.45557">
        <ele>598.16</ele>
        <time>2014-10-24T11:40:11Z</time>
      </trkpt>
      <trkpt lat="43.84302" lon="5.45559">
        <ele>598.22</ele>
        <time>2014-10-24T11:40:44Z</time>
      </trkpt>
      <trkpt lat="43.84303" lon="5.45558">
        <ele>598.65</ele>
        <time>2014-10-24T11:41:16Z</time>
      </trkpt>
      <trkpt lat="43.84302" lon="5.45557">
        <ele>598.55</ele>
        <time>2014-10-24T11:41:34Z</time>
      </trkpt>
      <trkpt lat="43.84302" lon="5.45558">
        <ele>598.75</ele>
        <time>2014-10-24T11:41:49Z</time>
      </trkpt>
      <trkpt lat="43.84302" lon="5.45558">
        <ele>598.61</ele>
        <time>2014-10-24T11:42:11Z</time>
      </trkpt>
      <trkpt lat="43.84301" lon="5.45558">
        <ele>598.51</ele>
        <time>2014-10-24T11:42:43Z</time>
      </trkpt>
      <trkpt lat="43.84301" lon="5.45558">
        <ele>598.43</ele>
        <time>2014-10-24T11:43:14Z</time>
      </trkpt>
      <trkpt lat="43.84301" lon="5.45558">
        <ele>598.47</ele>
        <time>2014-10-24T11:43:43Z</time>
      </trkpt>
      <trkpt lat="43.84299" lon="5.4556">
        <ele>598.54</ele>
        <time>2014-10-24T11:44:02Z</time>
      </trkpt>
      <trkpt lat="43.84298" lon="5.4556">
        <ele>598.69</ele>
        <time>2014-10-24T11:44:17Z</time>
      </trkpt>
      <trkpt lat="43.84297" lon="5.45561">
        <ele>598.59</ele>
        <time>2014-10-24T11:44:41Z</time>
      </trkpt>
      <trkpt lat="43.84293" lon="5.45565">
        <ele>598.47</ele>
        <time>2014-10-24T11:45:03Z</time>
      </trkpt>
      <trkpt lat="43.84278" lon="5.45567">
        <ele>599.59</ele>
        <time>2014-10-24T11:45:23Z</time>
      </trkpt>
      <trkpt lat="43.84263" lon="5.45568">
        <ele>601.96</ele>
        <time>2014-10-24T11:45:44Z</time>
      </trkpt>
      <trkpt lat="43.84259" lon="5.45567">
        <ele>603.05</ele>
        <time>2014-10-24T11:46:02Z</time>
      </trkpt>
      <trkpt lat="43.84257" lon="5.45567">
        <ele>603.23</ele>
        <time>2014-10-24T11:46:21Z</time>
      </trkpt>
      <trkpt lat="43.84251" lon="5.45571">
        <ele>603.41</ele>
        <time>2014-10-24T11:46:46Z</time>
      </trkpt>
      <trkpt lat="43.84241" lon="5.45587">
        <ele>603.16</ele>
        <time>2014-10-24T11:47:05Z</time>
      </trkpt>
      <trkpt lat="43.84232" lon="5.45599">
        <ele>602.35</ele>
        <time>2014-10-24T11:47:19Z</time>
      </trkpt>
      <trkpt lat="43.84211" lon="5.45626">
        <ele>601.56</ele>
        <time>2014-10-24T11:47:47Z</time>
      </trkpt>
      <trkpt lat="43.84193" lon="5.45649">
        <ele>600.68</ele>
        <time>2014-10-24T11:48:13Z</time>
      </trkpt>
      <trkpt lat="43.84181" lon="5.45657">
        <ele>600.36</ele>
        <time>2014-10-24T11:48:29Z</time>
      </trkpt>
      <trkpt lat="43.84168" lon="5.45652">
        <ele>600.84</ele>
        <time>2014-10-24T11:48:49Z</time>
      </trkpt>
      <trkpt lat="43.84165" lon="5.45636">
        <ele>602.24</ele>
        <time>2014-10-24T11:49:07Z</time>
      </trkpt>
      <trkpt lat="43.84164" lon="5.45616">
        <ele>603.91</ele>
        <time>2014-10-24T11:49:26Z</time>
      </trkpt>
      <trkpt lat="43.84165" lon="5.45595">
        <ele>606.29</ele>
        <time>2014-10-24T11:49:46Z</time>
      </trkpt>
      <trkpt lat="43.84167" lon="5.45576">
        <ele>608.8</ele>
        <time>2014-10-24T11:50:04Z</time>
      </trkpt>
      <trkpt lat="43.84171" lon="5.45555">
        <ele>611.3</ele>
        <time>2014-10-24T11:50:25Z</time>
      </trkpt>
      <trkpt lat="43.84169" lon="5.45536">
        <ele>613.32</ele>
        <time>2014-10-24T11:50:45Z</time>
      </trkpt>
      <trkpt lat="43.84169" lon="5.45533">
        <ele>614.03</ele>
        <time>2014-10-24T11:51:03Z</time>
      </trkpt>
      <trkpt lat="43.84168" lon="5.45509">
        <ele>615.62</ele>
        <time>2014-10-24T11:51:25Z</time>
      </trkpt>
      <trkpt lat="43.84173" lon="5.45491">
        <ele>617.14</ele>
        <time>2014-10-24T11:51:45Z</time>
      </trkpt>
      <trkpt lat="43.84181" lon="5.45467">
        <ele>619.1</ele>
        <time>2014-10-24T11:52:07Z</time>
      </trkpt>
      <trkpt lat="43.84184" lon="5.45439">
        <ele>620.12</ele>
        <time>2014-10-24T11:52:30Z</time>
      </trkpt>
      <trkpt lat="43.84188" lon="5.4541">
        <ele>621.04</ele>
        <time>2014-10-24T11:52:53Z</time>
      </trkpt>
      <trkpt lat="43.84187" lon="5.45397">
        <ele>621.61</ele>
        <time>2014-10-24T11:53:12Z</time>
      </trkpt>
      <trkpt lat="43.84185" lon="5.45385">
        <ele>621.86</ele>
        <time>2014-10-24T11:53:44Z</time>
      </trkpt>
      <trkpt lat="43.84182" lon="5.45366">
        <ele>622.91</ele>
        <time>2014-10-24T11:54:01Z</time>
      </trkpt>
      <trkpt lat="43.84188" lon="5.4534">
        <ele>624.61</ele>
        <time>2014-10-24T11:54:24Z</time>
      </trkpt>
      <trkpt lat="43.84192" lon="5.45324">
        <ele>625.66</ele>
        <time>2014-10-24T11:54:41Z</time>
      </trkpt>
      <trkpt lat="43.84194" lon="5.45298">
        <ele>626.92</ele>
        <time>2014-10-24T11:55:03Z</time>
      </trkpt>
      <trkpt lat="43.84198" lon="5.45273">
        <ele>628.03</ele>
        <time>2014-10-24T11:55:23Z</time>
      </trkpt>
      <trkpt lat="43.84203" lon="5.45258">
        <ele>628.96</ele>
        <time>2014-10-24T11:55:38Z</time>
      </trkpt>
      <trkpt lat="43.84203" lon="5.45242">
        <ele>629.99</ele>
        <time>2014-10-24T11:55:55Z</time>
      </trkpt>
      <trkpt lat="43.84204" lon="5.4524">
        <ele>630.42</ele>
        <time>2014-10-24T11:56:12Z</time>
      </trkpt>
      <trkpt lat="43.84205" lon="5.45239">
        <ele>629.98</ele>
        <time>2014-10-24T11:57:02Z</time>
      </trkpt>
      <trkpt lat="43.84204" lon="5.45239">
        <ele>630.8</ele>
        <time>2014-10-24T11:57:21Z</time>
      </trkpt>
      <trkpt lat="43.84204" lon="5.45239">
        <ele>630.44</ele>
        <time>2014-10-24T11:57:47Z</time>
      </trkpt>
      <trkpt lat="43.84204" lon="5.45239">
        <ele>630.46</ele>
        <time>2014-10-24T11:58:10Z</time>
      </trkpt>
      <trkpt lat="43.84205" lon="5.4524">
        <ele>630.25</ele>
        <time>2014-10-24T11:58:42Z</time>
      </trkpt>
      <trkpt lat="43.84208" lon="5.45239">
        <ele>629.98</ele>
        <time>2014-10-24T11:59:07Z</time>
      </trkpt>
      <trkpt lat="43.8421" lon="5.45227">
        <ele>630.4</ele>
        <time>2014-10-24T11:59:29Z</time>
      </trkpt>
      <trkpt lat="43.84212" lon="5.45202">
        <ele>630.7</ele>
        <time>2014-10-24T11:59:51Z</time>
      </trkpt>
      <trkpt lat="43.84214" lon="5.45174">
        <ele>630.3</ele>
        <time>2014-10-24T12:00:14Z</time>
      </trkpt>
      <trkpt lat="43.84216" lon="5.45147">
        <ele>629.48</ele>
        <time>2014-10-24T12:00:36Z</time>
      </trkpt>
      <trkpt lat="43.84218" lon="5.45115">
        <ele>628.33</ele>
        <time>2014-10-24T12:00:58Z</time>
      </trkpt>
      <trkpt lat="43.84218" lon="5.4509">
        <ele>627.61</ele>
        <time>2014-10-24T12:01:17Z</time>
      </trkpt>
      <trkpt lat="43.84216" lon="5.45054">
        <ele>626.64</ele>
        <time>2014-10-24T12:01:41Z</time>
      </trkpt>
      <trkpt lat="43.84216" lon="5.45024">
        <ele>625.68</ele>
        <time>2014-10-24T12:02:01Z</time>
      </trkpt>
      <trkpt lat="43.84223" lon="5.4499">
        <ele>624.69</ele>
        <time>2014-10-24T12:02:23Z</time>
      </trkpt>
      <trkpt lat="43.84228" lon="5.44956">
        <ele>624.45</ele>
        <time>2014-10-24T12:02:45Z</time>
      </trkpt>
      <trkpt lat="43.84234" lon="5.44923">
        <ele>624.41</ele>
        <time>2014-10-24T12:03:09Z</time>
      </trkpt>
      <trkpt lat="43.84239" lon="5.44895">
        <ele>624.03</ele>
        <time>2014-10-24T12:03:31Z</time>
      </trkpt>
      <trkpt lat="43.84248" lon="5.44869">
        <ele>623.75</ele>
        <time>2014-10-24T12:03:53Z</time>
      </trkpt>
      <trkpt lat="43.84257" lon="5.44848">
        <ele>623.54</ele>
        <time>2014-10-24T12:04:11Z</time>
      </trkpt>
      <trkpt lat="43.84266" lon="5.44822">
        <ele>623.18</ele>
        <time>2014-10-24T12:04:32Z</time>
      </trkpt>
      <trkpt lat="43.84271" lon="5.4481">
        <ele>622.48</ele>
        <time>2014-10-24T12:04:41Z</time>
      </trkpt>
      <trkpt lat="43.84285" lon="5.44784">
        <ele>621.72</ele>
        <time>2014-10-24T12:05:02Z</time>
      </trkpt>
      <trkpt lat="43.84293" lon="5.44762">
        <ele>621.37</ele>
        <time>2014-10-24T12:05:22Z</time>
      </trkpt>
      <trkpt lat="43.84295" lon="5.44737">
        <ele>621.18</ele>
        <time>2014-10-24T12:05:40Z</time>
      </trkpt>
      <trkpt lat="43.84295" lon="5.44711">
        <ele>620.56</ele>
        <time>2014-10-24T12:05:59Z</time>
      </trkpt>
      <trkpt lat="43.84296" lon="5.44676">
        <ele>619.61</ele>
        <time>2014-10-24T12:06:21Z</time>
      </trkpt>
      <trkpt lat="43.84296" lon="5.44661">
        <ele>619.05</ele>
        <time>2014-10-24T12:06:31Z</time>
      </trkpt>
      <trkpt lat="43.84298" lon="5.44642">
        <ele>618.17</ele>
        <time>2014-10-24T12:06:50Z</time>
      </trkpt>
      <trkpt lat="43.84302" lon="5.44634">
        <ele>617.23</ele>
        <time>2014-10-24T12:07:06Z</time>
      </trkpt>
      <trkpt lat="43.84309" lon="5.44629">
        <ele>616.63</ele>
        <time>2014-10-24T12:07:24Z</time>
      </trkpt>
      <trkpt lat="43.84312" lon="5.44626">
        <ele>615.85</ele>
        <time>2014-10-24T12:07:44Z</time>
      </trkpt>
      <trkpt lat="43.84328" lon="5.44625">
        <ele>613.99</ele>
        <time>2014-10-24T12:08:08Z</time>
      </trkpt>
      <trkpt lat="43.84347" lon="5.4462">
        <ele>612.79</ele>
        <time>2014-10-24T12:08:32Z</time>
      </trkpt>
      <trkpt lat="43.84362" lon="5.44625">
        <ele>610.29</ele>
        <time>2014-10-24T12:08:56Z</time>
      </trkpt>
      <trkpt lat="43.84382" lon="5.44631">
        <ele>608.58</ele>
        <time>2014-10-24T12:09:18Z</time>
      </trkpt>
      <trkpt lat="43.844" lon="5.44637">
        <ele>606.16</ele>
        <time>2014-10-24T12:09:44Z</time>
      </trkpt>
      <trkpt lat="43.84414" lon="5.44642">
        <ele>603.08</ele>
        <time>2014-10-24T12:10:07Z</time>
      </trkpt>
      <trkpt lat="43.84431" lon="5.44642">
        <ele>601.55</ele>
        <time>2014-10-24T12:10:29Z</time>
      </trkpt>
      <trkpt lat="43.84452" lon="5.44638">
        <ele>601.49</ele>
        <time>2014-10-24T12:10:53Z</time>
      </trkpt>
      <trkpt lat="43.84465" lon="5.44642">
        <ele>600.53</ele>
        <time>2014-10-24T12:11:18Z</time>
      </trkpt>
      <trkpt lat="43.8447" lon="5.4465">
        <ele>598.17</ele>
        <time>2014-10-24T12:11:41Z</time>
      </trkpt>
      <trkpt lat="43.84475" lon="5.44655">
        <ele>598.6</ele>
        <time>2014-10-24T12:12:11Z</time>
      </trkpt>
      <trkpt lat="43.84481" lon="5.44654">
        <ele>598.47</ele>
        <time>2014-10-24T12:12:40Z</time>
      </trkpt>
      <trkpt lat="43.84495" lon="5.44652">
        <ele>598.2</ele>
        <time>2014-10-24T12:13:02Z</time>
      </trkpt>
      <trkpt lat="43.8451" lon="5.44649">
        <ele>600.66</ele>
        <time>2014-10-24T12:13:24Z</time>
      </trkpt>
      <trkpt lat="43.84521" lon="5.44648">
        <ele>603.49</ele>
        <time>2014-10-24T12:13:43Z</time>
      </trkpt>
      <trkpt lat="43.84533" lon="5.44642">
        <ele>605.91</ele>
        <time>2014-10-24T12:14:01Z</time>
      </trkpt>
      <trkpt lat="43.84547" lon="5.4464">
        <ele>607.16</ele>
        <time>2014-10-24T12:14:25Z</time>
      </trkpt>
      <trkpt lat="43.84564" lon="5.44639">
        <ele>607.99</ele>
        <time>2014-10-24T12:14:49Z</time>
      </trkpt>
      <trkpt lat="43.84579" lon="5.44643">
        <ele>606.12</ele>
        <time>2014-10-24T12:15:12Z</time>
      </trkpt>
      <trkpt lat="43.84588" lon="5.44643">
        <ele>604.19</ele>
        <time>2014-10-24T12:15:34Z</time>
      </trkpt>
      <trkpt lat="43.84598" lon="5.44644">
        <ele>603.67</ele>
        <time>2014-10-24T12:15:56Z</time>
      </trkpt>
      <trkpt lat="43.84617" lon="5.44645">
        <ele>602.09</ele>
        <time>2014-10-24T12:16:21Z</time>
      </trkpt>
      <trkpt lat="43.84634" lon="5.44641">
        <ele>601.66</ele>
        <time>2014-10-24T12:16:41Z</time>
      </trkpt>
      <trkpt lat="43.84652" lon="5.44642">
        <ele>602.45</ele>
        <time>2014-10-24T12:17:03Z</time>
      </trkpt>
      <trkpt lat="43.84671" lon="5.44646">
        <ele>601.47</ele>
        <time>2014-10-24T12:17:28Z</time>
      </trkpt>
      <trkpt lat="43.8469" lon="5.44645">
        <ele>601.72</ele>
        <time>2014-10-24T12:17:47Z</time>
      </trkpt>
      <trkpt lat="43.84705" lon="5.44643">
        <ele>601.82</ele>
        <time>2014-10-24T12:18:06Z</time>
      </trkpt>
      <trkpt lat="43.84718" lon="5.4464">
        <ele>603.25</ele>
        <time>2014-10-24T12:18:26Z</time>
      </trkpt>
      <trkpt lat="43.84728" lon="5.44638">
        <ele>604.29</ele>
        <time>2014-10-24T12:18:45Z</time>
      </trkpt>
      <trkpt lat="43.84744" lon="5.44635">
        <ele>606.26</ele>
        <time>2014-10-24T12:19:06Z</time>
      </trkpt>
      <trkpt lat="43.8476" lon="5.44631">
        <ele>607.4</ele>
        <time>2014-10-24T12:19:27Z</time>
      </trkpt>
      <trkpt lat="43.84778" lon="5.44621">
        <ele>609.36</ele>
        <time>2014-10-24T12:19:52Z</time>
      </trkpt>
      <trkpt lat="43.84791" lon="5.44615">
        <ele>609.72</ele>
        <time>2014-10-24T12:20:15Z</time>
      </trkpt>
      <trkpt lat="43.84802" lon="5.44611">
        <ele>608.93</ele>
        <time>2014-10-24T12:20:38Z</time>
      </trkpt>
      <trkpt lat="43.84814" lon="5.44602">
        <ele>608.51</ele>
        <time>2014-10-24T12:21:02Z</time>
      </trkpt>
      <trkpt lat="43.84825" lon="5.44592">
        <ele>608.51</ele>
        <time>2014-10-24T12:21:25Z</time>
      </trkpt>
      <trkpt lat="43.84841" lon="5.44577">
        <ele>608.09</ele>
        <time>2014-10-24T12:21:47Z</time>
      </trkpt>
      <trkpt lat="43.84859" lon="5.44561">
        <ele>608.55</ele>
        <time>2014-10-24T12:22:10Z</time>
      </trkpt>
      <trkpt lat="43.84872" lon="5.44552">
        <ele>608.27</ele>
        <time>2014-10-24T12:22:29Z</time>
      </trkpt>
      <trkpt lat="43.84881" lon="5.44533">
        <ele>608.01</ele>
        <time>2014-10-24T12:22:48Z</time>
      </trkpt>
      <trkpt lat="43.84885" lon="5.44512">
        <ele>607.4</ele>
        <time>2014-10-24T12:23:07Z</time>
      </trkpt>
      <trkpt lat="43.8489" lon="5.44491">
        <ele>606.92</ele>
        <time>2014-10-24T12:23:27Z</time>
      </trkpt>
      <trkpt lat="43.84893" lon="5.44478">
        <ele>606.43</ele>
        <time>2014-10-24T12:23:45Z</time>
      </trkpt>
      <trkpt lat="43.84901" lon="5.44454">
        <ele>606.33</ele>
        <time>2014-10-24T12:24:03Z</time>
      </trkpt>
      <trkpt lat="43.84908" lon="5.44431">
        <ele>605.64</ele>
        <time>2014-10-24T12:24:23Z</time>
      </trkpt>
      <trkpt lat="43.84915" lon="5.4442">
        <ele>605.17</ele>
        <time>2014-10-24T12:24:42Z</time>
      </trkpt>
      <trkpt lat="43.84926" lon="5.44401">
        <ele>604.49</ele>
        <time>2014-10-24T12:25:06Z</time>
      </trkpt>
      <trkpt lat="43.8493" lon="5.44394">
        <ele>604.71</ele>
        <time>2014-10-24T12:25:38Z</time>
      </trkpt>
      <trkpt lat="43.84931" lon="5.44392">
        <ele>605.37</ele>
        <time>2014-10-24T12:26:02Z</time>
      </trkpt>
      <trkpt lat="43.84935" lon="5.44388">
        <ele>605.49</ele>
        <time>2014-10-24T12:26:30Z</time>
      </trkpt>
      <trkpt lat="43.84944" lon="5.44384">
        <ele>605.62</ele>
        <time>2014-10-24T12:27:01Z</time>
      </trkpt>
      <trkpt lat="43.84953" lon="5.44374">
        <ele>605.42</ele>
        <time>2014-10-24T12:27:24Z</time>
      </trkpt>
      <trkpt lat="43.84963" lon="5.4436">
        <ele>605.38</ele>
        <time>2014-10-24T12:27:45Z</time>
      </trkpt>
      <trkpt lat="43.84974" lon="5.44346">
        <ele>605.35</ele>
        <time>2014-10-24T12:28:06Z</time>
      </trkpt>
      <trkpt lat="43.84977" lon="5.44341">
        <ele>605.46</ele>
        <time>2014-10-24T12:28:28Z</time>
      </trkpt>
      <trkpt lat="43.84986" lon="5.44327">
        <ele>605.29</ele>
        <time>2014-10-24T12:28:50Z</time>
      </trkpt>
      <trkpt lat="43.84995" lon="5.44312">
        <ele>604.76</ele>
        <time>2014-10-24T12:29:09Z</time>
      </trkpt>
      <trkpt lat="43.85002" lon="5.44295">
        <ele>604.82</ele>
        <time>2014-10-24T12:29:29Z</time>
      </trkpt>
      <trkpt lat="43.85005" lon="5.44287">
        <ele>604.39</ele>
        <time>2014-10-24T12:29:50Z</time>
      </trkpt>
      <trkpt lat="43.85016" lon="5.4428">
        <ele>603.7</ele>
        <time>2014-10-24T12:30:05Z</time>
      </trkpt>
      <trkpt lat="43.85026" lon="5.44277">
        <ele>603.27</ele>
        <time>2014-10-24T12:30:25Z</time>
      </trkpt>
      <trkpt lat="43.85031" lon="5.44273">
        <ele>603.03</ele>
        <time>2014-10-24T12:30:50Z</time>
      </trkpt>
      <trkpt lat="43.85029" lon="5.44272">
        <ele>603.29</ele>
        <time>2014-10-24T12:31:22Z</time>
      </trkpt>
      <trkpt lat="43.8504" lon="5.44263">
        <ele>602.93</ele>
        <time>2014-10-24T12:31:41Z</time>
      </trkpt>
      <trkpt lat="43.85049" lon="5.44259">
        <ele>602.57</ele>
        <time>2014-10-24T12:31:59Z</time>
      </trkpt>
      <trkpt lat="43.85063" lon="5.44255">
        <ele>602.07</ele>
        <time>2014-10-24T12:32:22Z</time>
      </trkpt>
      <trkpt lat="43.85075" lon="5.44251">
        <ele>601.15</ele>
        <time>2014-10-24T12:32:45Z</time>
      </trkpt>
      <trkpt lat="43.8509" lon="5.44244">
        <ele>600.39</ele>
        <time>2014-10-24T12:33:07Z</time>
      </trkpt>
      <trkpt lat="43.85103" lon="5.4423">
        <ele>599.46</ele>
        <time>2014-10-24T12:33:27Z</time>
      </trkpt>
      <trkpt lat="43.85119" lon="5.44219">
        <ele>598.48</ele>
        <time>2014-10-24T12:33:50Z</time>
      </trkpt>
      <trkpt lat="43.85135" lon="5.4421">
        <ele>597.84</ele>
        <time>2014-10-24T12:34:09Z</time>
      </trkpt>
      <trkpt lat="43.8515" lon="5.44205">
        <ele>597.28</ele>
        <time>2014-10-24T12:34:31Z</time>
      </trkpt>
      <trkpt lat="43.85167" lon="5.44197">
        <ele>596.74</ele>
        <time>2014-10-24T12:34:52Z</time>
      </trkpt>
      <trkpt lat="43.85181" lon="5.44189">
        <ele>596.34</ele>
        <time>2014-10-24T12:35:11Z</time>
      </trkpt>
      <trkpt lat="43.852" lon="5.44181">
        <ele>595.53</ele>
        <time>2014-10-24T12:35:30Z</time>
      </trkpt>
      <trkpt lat="43.85218" lon="5.44177">
        <ele>594.75</ele>
        <time>2014-10-24T12:35:47Z</time>
      </trkpt>
      <trkpt lat="43.85234" lon="5.44179">
        <ele>594.12</ele>
        <time>2014-10-24T12:36:05Z</time>
      </trkpt>
      <trkpt lat="43.85246" lon="5.44181">
        <ele>593.99</ele>
        <time>2014-10-24T12:36:26Z</time>
      </trkpt>
      <trkpt lat="43.85264" lon="5.44185">
        <ele>593.42</ele>
        <time>2014-10-24T12:36:48Z</time>
      </trkpt>
      <trkpt lat="43.85276" lon="5.44186">
        <ele>592.83</ele>
        <time>2014-10-24T12:37:08Z</time>
      </trkpt>
      <trkpt lat="43.8529" lon="5.44185">
        <ele>592.29</ele>
        <time>2014-10-24T12:37:26Z</time>
      </trkpt>
      <trkpt lat="43.85297" lon="5.44185">
        <ele>592.03</ele>
        <time>2014-10-24T12:37:33Z</time>
      </trkpt>
      <trkpt lat="43.85314" lon="5.44179">
        <ele>590.71</ele>
        <time>2014-10-24T12:37:51Z</time>
      </trkpt>
      <trkpt lat="43.85331" lon="5.44174">
        <ele>589.64</ele>
        <time>2014-10-24T12:38:11Z</time>
      </trkpt>
      <trkpt lat="43.85342" lon="5.44167">
        <ele>589.28</ele>
        <time>2014-10-24T12:38:30Z</time>
      </trkpt>
      <trkpt lat="43.85351" lon="5.44159">
        <ele>588.49</ele>
        <time>2014-10-24T12:38:56Z</time>
      </trkpt>
      <trkpt lat="43.8535" lon="5.4416">
        <ele>588.44</ele>
        <time>2014-10-24T12:39:10Z</time>
      </trkpt>
      <trkpt lat="43.85351" lon="5.44156">
        <ele>588.31</ele>
        <time>2014-10-24T12:39:23Z</time>
      </trkpt>
      <trkpt lat="43.8535" lon="5.44156">
        <ele>587.83</ele>
        <time>2014-10-24T12:39:44Z</time>
      </trkpt>
      <trkpt lat="43.85349" lon="5.44154">
        <ele>587.67</ele>
        <time>2014-10-24T12:40:18Z</time>
      </trkpt>
      <trkpt lat="43.85347" lon="5.44154">
        <ele>587.24</ele>
        <time>2014-10-24T12:40:50Z</time>
      </trkpt>
      <trkpt lat="43.8535" lon="5.44154">
        <ele>587.17</ele>
        <time>2014-10-24T12:41:22Z</time>
      </trkpt>
      <trkpt lat="43.85351" lon="5.44155">
        <ele>587.14</ele>
        <time>2014-10-24T12:41:56Z</time>
      </trkpt>
      <trkpt lat="43.8535" lon="5.44157">
        <ele>587.2</ele>
        <time>2014-10-24T12:42:25Z</time>
      </trkpt>
      <trkpt lat="43.85354" lon="5.44159">
        <ele>587.09</ele>
        <time>2014-10-24T12:42:52Z</time>
      </trkpt>
      <trkpt lat="43.85354" lon="5.44157">
        <ele>587.32</ele>
        <time>2014-10-24T12:43:26Z</time>
      </trkpt>
      <trkpt lat="43.85354" lon="5.44156">
        <ele>587.84</ele>
        <time>2014-10-24T12:43:41Z</time>
      </trkpt>
      <trkpt lat="43.85364" lon="5.44147">
        <ele>587.54</ele>
        <time>2014-10-24T12:43:58Z</time>
      </trkpt>
      <trkpt lat="43.85376" lon="5.44142">
        <ele>586.95</ele>
        <time>2014-10-24T12:44:17Z</time>
      </trkpt>
      <trkpt lat="43.8539" lon="5.44133">
        <ele>586.37</ele>
        <time>2014-10-24T12:44:35Z</time>
      </trkpt>
      <trkpt lat="43.85403" lon="5.4412">
        <ele>586.05</ele>
        <time>2014-10-24T12:44:52Z</time>
      </trkpt>
      <trkpt lat="43.85416" lon="5.44111">
        <ele>585.56</ele>
        <time>2014-10-24T12:45:10Z</time>
      </trkpt>
      <trkpt lat="43.85431" lon="5.44098">
        <ele>585.48</ele>
        <time>2014-10-24T12:45:28Z</time>
      </trkpt>
      <trkpt lat="43.85448" lon="5.44099">
        <ele>585.41</ele>
        <time>2014-10-24T12:45:50Z</time>
      </trkpt>
      <trkpt lat="43.85463" lon="5.44104">
        <ele>585.21</ele>
        <time>2014-10-24T12:46:07Z</time>
      </trkpt>
      <trkpt lat="43.85474" lon="5.44099">
        <ele>584.73</ele>
        <time>2014-10-24T12:46:19Z</time>
      </trkpt>
      <trkpt lat="43.85479" lon="5.4409">
        <ele>584.46</ele>
        <time>2014-10-24T12:46:35Z</time>
      </trkpt>
      <trkpt lat="43.8548" lon="5.44087">
        <ele>584.52</ele>
        <time>2014-10-24T12:46:38Z</time>
      </trkpt>
      <trkpt lat="43.85488" lon="5.44064">
        <ele>584.49</ele>
        <time>2014-10-24T12:47:00Z</time>
      </trkpt>
      <trkpt lat="43.85494" lon="5.44037">
        <ele>584.12</ele>
        <time>2014-10-24T12:47:20Z</time>
      </trkpt>
      <trkpt lat="43.85505" lon="5.44009">
        <ele>583.77</ele>
        <time>2014-10-24T12:47:41Z</time>
      </trkpt>
      <trkpt lat="43.85515" lon="5.43978">
        <ele>583.28</ele>
        <time>2014-10-24T12:48:04Z</time>
      </trkpt>
      <trkpt lat="43.85523" lon="5.43951">
        <ele>583.07</ele>
        <time>2014-10-24T12:48:23Z</time>
      </trkpt>
      <trkpt lat="43.85531" lon="5.43919">
        <ele>583.18</ele>
        <time>2014-10-24T12:48:44Z</time>
      </trkpt>
      <trkpt lat="43.85542" lon="5.4389">
        <ele>582.71</ele>
        <time>2014-10-24T12:49:04Z</time>
      </trkpt>
      <trkpt lat="43.85553" lon="5.4387">
        <ele>581.64</ele>
        <time>2014-10-24T12:49:22Z</time>
      </trkpt>
      <trkpt lat="43.85578" lon="5.43859">
        <ele>580.44</ele>
        <time>2014-10-24T12:49:46Z</time>
      </trkpt>
      <trkpt lat="43.85594" lon="5.43849">
        <ele>579.51</ele>
        <time>2014-10-24T12:50:05Z</time>
      </trkpt>
      <trkpt lat="43.85604" lon="5.43841">
        <ele>577.98</ele>
        <time>2014-10-24T12:50:21Z</time>
      </trkpt>
      <trkpt lat="43.85621" lon="5.43833">
        <ele>575.75</ele>
        <time>2014-10-24T12:50:40Z</time>
      </trkpt>
      <trkpt lat="43.85634" lon="5.43824">
        <ele>574.03</ele>
        <time>2014-10-24T12:50:56Z</time>
      </trkpt>
      <trkpt lat="43.85646" lon="5.43814">
        <ele>572.16</ele>
        <time>2014-10-24T12:51:13Z</time>
      </trkpt>
      <trkpt lat="43.85656" lon="5.43808">
        <ele>571.03</ele>
        <time>2014-10-24T12:51:26Z</time>
      </trkpt>
      <trkpt lat="43.85673" lon="5.43792">
        <ele>569.14</ele>
        <time>2014-10-24T12:51:44Z</time>
      </trkpt>
      <trkpt lat="43.85684" lon="5.43778">
        <ele>568.05</ele>
        <time>2014-10-24T12:51:59Z</time>
      </trkpt>
      <trkpt lat="43.85698" lon="5.43761">
        <ele>566.49</ele>
        <time>2014-10-24T12:52:18Z</time>
      </trkpt>
      <trkpt lat="43.85711" lon="5.4375">
        <ele>564.65</ele>
        <time>2014-10-24T12:52:36Z</time>
      </trkpt>
      <trkpt lat="43.85723" lon="5.43735">
        <ele>563.06</ele>
        <time>2014-10-24T12:52:54Z</time>
      </trkpt>
      <trkpt lat="43.85733" lon="5.43712">
        <ele>562.05</ele>
        <time>2014-10-24T12:53:12Z</time>
      </trkpt>
      <trkpt lat="43.85734" lon="5.4371">
        <ele>561.87</ele>
        <time>2014-10-24T12:53:14Z</time>
      </trkpt>
      <trkpt lat="43.85741" lon="5.43697">
        <ele>560.85</ele>
        <time>2014-10-24T12:53:27Z</time>
      </trkpt>
      <trkpt lat="43.85758" lon="5.43675">
        <ele>559.93</ele>
        <time>2014-10-24T12:53:48Z</time>
      </trkpt>
      <trkpt lat="43.85772" lon="5.43653">
        <ele>559.05</ele>
        <time>2014-10-24T12:54:08Z</time>
      </trkpt>
      <trkpt lat="43.85781" lon="5.43632">
        <ele>558.18</ele>
        <time>2014-10-24T12:54:25Z</time>
      </trkpt>
      <trkpt lat="43.85791" lon="5.43606">
        <ele>556.53</ele>
        <time>2014-10-24T12:54:44Z</time>
      </trkpt>
      <trkpt lat="43.85802" lon="5.43581">
        <ele>554.84</ele>
        <time>2014-10-24T12:55:05Z</time>
      </trkpt>
      <trkpt lat="43.85812" lon="5.43559">
        <ele>553.58</ele>
        <time>2014-10-24T12:55:25Z</time>
      </trkpt>
      <trkpt lat="43.85813" lon="5.43536">
        <ele>552.42</ele>
        <time>2014-10-24T12:55:45Z</time>
      </trkpt>
      <trkpt lat="43.8581" lon="5.43516">
        <ele>551.76</ele>
        <time>2014-10-24T12:56:00Z</time>
      </trkpt>
      <trkpt lat="43.85808" lon="5.43488">
        <ele>550.91</ele>
        <time>2014-10-24T12:56:20Z</time>
      </trkpt>
      <trkpt lat="43.85807" lon="5.43466">
        <ele>550.59</ele>
        <time>2014-10-24T12:56:38Z</time>
      </trkpt>
      <trkpt lat="43.85805" lon="5.43457">
        <ele>550.51</ele>
        <time>2014-10-24T12:57:02Z</time>
      </trkpt>
      <trkpt lat="43.85806" lon="5.43454">
        <ele>550.25</ele>
        <time>2014-10-24T12:57:24Z</time>
      </trkpt>
      <trkpt lat="43.85811" lon="5.43444">
        <ele>550.01</ele>
        <time>2014-10-24T12:57:46Z</time>
      </trkpt>
      <trkpt lat="43.8582" lon="5.4344">
        <ele>549.61</ele>
        <time>2014-10-24T12:57:58Z</time>
      </trkpt>
      <trkpt lat="43.85844" lon="5.43425">
        <ele>548.31</ele>
        <time>2014-10-24T12:58:24Z</time>
      </trkpt>
      <trkpt lat="43.85866" lon="5.4341">
        <ele>546.81</ele>
        <time>2014-10-24T12:58:49Z</time>
      </trkpt>
      <trkpt lat="43.85886" lon="5.43396">
        <ele>545.31</ele>
        <time>2014-10-24T12:59:11Z</time>
      </trkpt>
      <trkpt lat="43.85905" lon="5.43382">
        <ele>543.58</ele>
        <time>2014-10-24T12:59:32Z</time>
      </trkpt>
      <trkpt lat="43.85921" lon="5.43368">
        <ele>541.96</ele>
        <time>2014-10-24T12:59:50Z</time>
      </trkpt>
      <trkpt lat="43.85939" lon="5.43354">
        <ele>539.98</ele>
        <time>2014-10-24T13:00:13Z</time>
      </trkpt>
      <trkpt lat="43.85957" lon="5.43339">
        <ele>538.19</ele>
        <time>2014-10-24T13:00:33Z</time>
      </trkpt>
      <trkpt lat="43.85973" lon="5.4332">
        <ele>536.69</ele>
        <time>2014-10-24T13:00:53Z</time>
      </trkpt>
      <trkpt lat="43.85984" lon="5.43302">
        <ele>535.32</ele>
        <time>2014-10-24T13:01:12Z</time>
      </trkpt>
      <trkpt lat="43.85993" lon="5.43282">
        <ele>533.72</ele>
        <time>2014-10-24T13:01:31Z</time>
      </trkpt>
      <trkpt lat="43.86004" lon="5.43258">
        <ele>531.99</ele>
        <time>2014-10-24T13:01:51Z</time>
      </trkpt>
      <trkpt lat="43.86008" lon="5.43228">
        <ele>530.02</ele>
        <time>2014-10-24T13:02:14Z</time>
      </trkpt>
      <trkpt lat="43.86014" lon="5.43199">
        <ele>528.3</ele>
        <time>2014-10-24T13:02:37Z</time>
      </trkpt>
      <trkpt lat="43.86021" lon="5.4318">
        <ele>526.85</ele>
        <time>2014-10-24T13:02:55Z</time>
      </trkpt>
      <trkpt lat="43.86027" lon="5.43157">
        <ele>524.86</ele>
        <time>2014-10-24T13:03:20Z</time>
      </trkpt>
      <trkpt lat="43.8604" lon="5.4313">
        <ele>522.28</ele>
        <time>2014-10-24T13:03:43Z</time>
      </trkpt>
      <trkpt lat="43.86044" lon="5.4311">
        <ele>519.91</ele>
        <time>2014-10-24T13:04:02Z</time>
      </trkpt>
      <trkpt lat="43.8606" lon="5.43079">
        <ele>517.4</ele>
        <time>2014-10-24T13:04:23Z</time>
      </trkpt>
      <trkpt lat="43.86065" lon="5.43059">
        <ele>514.98</ele>
        <time>2014-10-24T13:04:42Z</time>
      </trkpt>
      <trkpt lat="43.86065" lon="5.43053">
        <ele>513.5</ele>
        <time>2014-10-24T13:05:03Z</time>
      </trkpt>
      <trkpt lat="43.86078" lon="5.43037">
        <ele>511.47</ele>
        <time>2014-10-24T13:05:27Z</time>
      </trkpt>
      <trkpt lat="43.86095" lon="5.43024">
        <ele>509.4</ele>
        <time>2014-10-24T13:05:47Z</time>
      </trkpt>
      <trkpt lat="43.86118" lon="5.43015">
        <ele>506.84</ele>
        <time>2014-10-24T13:06:08Z</time>
      </trkpt>
      <trkpt lat="43.86127" lon="5.43012">
        <ele>505.29</ele>
        <time>2014-10-24T13:06:24Z</time>
      </trkpt>
      <trkpt lat="43.86133" lon="5.43013">
        <ele>504.9</ele>
        <time>2014-10-24T13:06:32Z</time>
      </trkpt>
      <trkpt lat="43.86143" lon="5.43002">
        <ele>503.53</ele>
        <time>2014-10-24T13:06:46Z</time>
      </trkpt>
      <trkpt lat="43.86144" lon="5.43002">
        <ele>530.72</ele>
        <time>2014-10-24T13:07:03Z</time>
      </trkpt>
    </trkseg>
  </trk>
</gpx>